<?xml version="1.0" encoding="UTF-8" standalone="no" ?>
<gpx xmlns="http://www.topografix.com/GPX/1/1" xmlns:xsi="http://www.w3.org/2001/XMLSchema-instance" xsi:schemaLocation="http://www.topografix.com/GPX/1/1 http://www.topografix.com/GPX/1/1/gpx.xsd" version="1.1" creator="VisuGPX - https://www.visugpx.com">
  <metadata>
    <name>Labourdayre Magnolia 13,8Km VOK</name>
    <desc><![CDATA[Total: 13.8km]]></desc>
  </metadata>
  <trk>
    <name><![CDATA[Randonnée du 17/05/2020 à 14:59]]></name>
    <desc><![CDATA[Total: 13.8km]]></desc>
    <trkseg>
      <trkpt lat="43.55302" lon="1.17743">
        <ele>206</ele>
        <time>2020-05-25T16:49:16Z</time>
      </trkpt>
      <trkpt lat="43.55309" lon="1.1773">
        <ele>206</ele>
        <time>2020-05-25T16:49:26Z</time>
      </trkpt>
      <trkpt lat="43.55305" lon="1.17692">
        <ele>204</ele>
        <time>2020-05-25T16:49:48Z</time>
      </trkpt>
      <trkpt lat="43.55305" lon="1.17679">
        <ele>203</ele>
        <time>2020-05-25T16:49:56Z</time>
      </trkpt>
      <trkpt lat="43.55307" lon="1.17666">
        <ele>201</ele>
        <time>2020-05-25T16:50:03Z</time>
      </trkpt>
      <trkpt lat="43.55304" lon="1.17654">
        <ele>199</ele>
        <time>2020-05-25T16:50:11Z</time>
      </trkpt>
      <trkpt lat="43.55302" lon="1.17642">
        <ele>198</ele>
        <time>2020-05-25T16:50:18Z</time>
      </trkpt>
      <trkpt lat="43.55302" lon="1.17629">
        <ele>197</ele>
        <time>2020-05-25T16:50:25Z</time>
      </trkpt>
      <trkpt lat="43.55303" lon="1.17617">
        <ele>194</ele>
        <time>2020-05-25T16:50:33Z</time>
      </trkpt>
      <trkpt lat="43.55305" lon="1.17604">
        <ele>190</ele>
        <time>2020-05-25T16:50:41Z</time>
      </trkpt>
      <trkpt lat="43.55301" lon="1.17592">
        <ele>190</ele>
        <time>2020-05-25T16:50:49Z</time>
      </trkpt>
      <trkpt lat="43.553" lon="1.17579">
        <ele>190</ele>
        <time>2020-05-25T16:50:56Z</time>
      </trkpt>
      <trkpt lat="43.55301" lon="1.17567">
        <ele>191</ele>
        <time>2020-05-25T16:51:04Z</time>
      </trkpt>
      <trkpt lat="43.55302" lon="1.17553">
        <ele>192</ele>
        <time>2020-05-25T16:51:12Z</time>
      </trkpt>
      <trkpt lat="43.55304" lon="1.1754">
        <ele>192</ele>
        <time>2020-05-25T16:51:19Z</time>
      </trkpt>
      <trkpt lat="43.55305" lon="1.17527">
        <ele>194</ele>
        <time>2020-05-25T16:51:27Z</time>
      </trkpt>
      <trkpt lat="43.553" lon="1.17516">
        <ele>197</ele>
        <time>2020-05-25T16:51:35Z</time>
      </trkpt>
      <trkpt lat="43.553" lon="1.17502">
        <ele>199</ele>
        <time>2020-05-25T16:51:43Z</time>
      </trkpt>
      <trkpt lat="43.55299" lon="1.17488">
        <ele>201</ele>
        <time>2020-05-25T16:51:52Z</time>
      </trkpt>
      <trkpt lat="43.55298" lon="1.17476">
        <ele>202</ele>
        <time>2020-05-25T16:51:59Z</time>
      </trkpt>
      <trkpt lat="43.55301" lon="1.17463">
        <ele>201</ele>
        <time>2020-05-25T16:52:07Z</time>
      </trkpt>
      <trkpt lat="43.55299" lon="1.17451">
        <ele>200</ele>
        <time>2020-05-25T16:52:14Z</time>
      </trkpt>
      <trkpt lat="43.55296" lon="1.17438">
        <ele>201</ele>
        <time>2020-05-25T16:52:22Z</time>
      </trkpt>
      <trkpt lat="43.55293" lon="1.17426">
        <ele>202</ele>
        <time>2020-05-25T16:52:30Z</time>
      </trkpt>
      <trkpt lat="43.55292" lon="1.17413">
        <ele>202</ele>
        <time>2020-05-25T16:52:37Z</time>
      </trkpt>
      <trkpt lat="43.55292" lon="1.174">
        <ele>203</ele>
        <time>2020-05-25T16:52:45Z</time>
      </trkpt>
      <trkpt lat="43.55292" lon="1.17385">
        <ele>203</ele>
        <time>2020-05-25T16:52:53Z</time>
      </trkpt>
      <trkpt lat="43.5529" lon="1.17371">
        <ele>203</ele>
        <time>2020-05-25T16:53:02Z</time>
      </trkpt>
      <trkpt lat="43.55289" lon="1.17358">
        <ele>203</ele>
        <time>2020-05-25T16:53:09Z</time>
      </trkpt>
      <trkpt lat="43.5529" lon="1.17346">
        <ele>203</ele>
        <time>2020-05-25T16:53:16Z</time>
      </trkpt>
      <trkpt lat="43.55292" lon="1.17332">
        <ele>203</ele>
        <time>2020-05-25T16:53:24Z</time>
      </trkpt>
      <trkpt lat="43.55292" lon="1.17319">
        <ele>202</ele>
        <time>2020-05-25T16:53:32Z</time>
      </trkpt>
      <trkpt lat="43.55293" lon="1.17305">
        <ele>202</ele>
        <time>2020-05-25T16:53:40Z</time>
      </trkpt>
      <trkpt lat="43.5529" lon="1.17293">
        <ele>203</ele>
        <time>2020-05-25T16:53:48Z</time>
      </trkpt>
      <trkpt lat="43.55288" lon="1.1728">
        <ele>204</ele>
        <time>2020-05-25T16:53:55Z</time>
      </trkpt>
      <trkpt lat="43.55286" lon="1.17267">
        <ele>204</ele>
        <time>2020-05-25T16:54:03Z</time>
      </trkpt>
      <trkpt lat="43.55288" lon="1.17255">
        <ele>204</ele>
        <time>2020-05-25T16:54:10Z</time>
      </trkpt>
      <trkpt lat="43.5529" lon="1.17241">
        <ele>204</ele>
        <time>2020-05-25T16:54:19Z</time>
      </trkpt>
      <trkpt lat="43.55291" lon="1.17227">
        <ele>202</ele>
        <time>2020-05-25T16:54:27Z</time>
      </trkpt>
      <trkpt lat="43.55294" lon="1.17215">
        <ele>201</ele>
        <time>2020-05-25T16:54:34Z</time>
      </trkpt>
      <trkpt lat="43.55293" lon="1.17201">
        <ele>201</ele>
        <time>2020-05-25T16:54:42Z</time>
      </trkpt>
      <trkpt lat="43.55295" lon="1.17189">
        <ele>199</ele>
        <time>2020-05-25T16:54:50Z</time>
      </trkpt>
      <trkpt lat="43.55296" lon="1.17176">
        <ele>199</ele>
        <time>2020-05-25T16:54:58Z</time>
      </trkpt>
      <trkpt lat="43.55298" lon="1.17164">
        <ele>199</ele>
        <time>2020-05-25T16:55:05Z</time>
      </trkpt>
      <trkpt lat="43.55299" lon="1.17151">
        <ele>199</ele>
        <time>2020-05-25T16:55:13Z</time>
      </trkpt>
      <trkpt lat="43.55302" lon="1.17138">
        <ele>198</ele>
        <time>2020-05-25T16:55:20Z</time>
      </trkpt>
      <trkpt lat="43.55302" lon="1.17124">
        <ele>197</ele>
        <time>2020-05-25T16:55:28Z</time>
      </trkpt>
      <trkpt lat="43.55304" lon="1.17111">
        <ele>197</ele>
        <time>2020-05-25T16:55:36Z</time>
      </trkpt>
      <trkpt lat="43.55306" lon="1.17099">
        <ele>198</ele>
        <time>2020-05-25T16:55:43Z</time>
      </trkpt>
      <trkpt lat="43.55308" lon="1.17086">
        <ele>199</ele>
        <time>2020-05-25T16:55:51Z</time>
      </trkpt>
      <trkpt lat="43.55309" lon="1.17074">
        <ele>200</ele>
        <time>2020-05-25T16:55:58Z</time>
      </trkpt>
      <trkpt lat="43.55307" lon="1.17061">
        <ele>201</ele>
        <time>2020-05-25T16:56:06Z</time>
      </trkpt>
      <trkpt lat="43.55309" lon="1.17048">
        <ele>202</ele>
        <time>2020-05-25T16:56:13Z</time>
      </trkpt>
      <trkpt lat="43.55312" lon="1.17034">
        <ele>203</ele>
        <time>2020-05-25T16:56:22Z</time>
      </trkpt>
      <trkpt lat="43.55314" lon="1.17022">
        <ele>203</ele>
        <time>2020-05-25T16:56:29Z</time>
      </trkpt>
      <trkpt lat="43.55317" lon="1.17009">
        <ele>203</ele>
        <time>2020-05-25T16:56:37Z</time>
      </trkpt>
      <trkpt lat="43.55319" lon="1.16994">
        <ele>204</ele>
        <time>2020-05-25T16:56:46Z</time>
      </trkpt>
      <trkpt lat="43.55322" lon="1.16981">
        <ele>204</ele>
        <time>2020-05-25T16:56:54Z</time>
      </trkpt>
      <trkpt lat="43.55322" lon="1.16968">
        <ele>204</ele>
        <time>2020-05-25T16:57:02Z</time>
      </trkpt>
      <trkpt lat="43.55324" lon="1.16954">
        <ele>206</ele>
        <time>2020-05-25T16:57:10Z</time>
      </trkpt>
      <trkpt lat="43.55325" lon="1.1694">
        <ele>206</ele>
        <time>2020-05-25T16:57:18Z</time>
      </trkpt>
      <trkpt lat="43.55327" lon="1.16926">
        <ele>207</ele>
        <time>2020-05-25T16:57:26Z</time>
      </trkpt>
      <trkpt lat="43.55329" lon="1.16914">
        <ele>207</ele>
        <time>2020-05-25T16:57:34Z</time>
      </trkpt>
      <trkpt lat="43.55326" lon="1.16901">
        <ele>207</ele>
        <time>2020-05-25T16:57:42Z</time>
      </trkpt>
      <trkpt lat="43.55327" lon="1.16888">
        <ele>206</ele>
        <time>2020-05-25T16:57:49Z</time>
      </trkpt>
      <trkpt lat="43.5533" lon="1.16877">
        <ele>205</ele>
        <time>2020-05-25T16:57:56Z</time>
      </trkpt>
      <trkpt lat="43.55329" lon="1.16863">
        <ele>206</ele>
        <time>2020-05-25T16:58:04Z</time>
      </trkpt>
      <trkpt lat="43.55334" lon="1.16852">
        <ele>205</ele>
        <time>2020-05-25T16:58:12Z</time>
      </trkpt>
      <trkpt lat="43.55334" lon="1.16839">
        <ele>204</ele>
        <time>2020-05-25T16:58:19Z</time>
      </trkpt>
      <trkpt lat="43.55337" lon="1.16826">
        <ele>202</ele>
        <time>2020-05-25T16:58:28Z</time>
      </trkpt>
      <trkpt lat="43.55339" lon="1.16813">
        <ele>203</ele>
        <time>2020-05-25T16:58:35Z</time>
      </trkpt>
      <trkpt lat="43.55341" lon="1.168">
        <ele>202</ele>
        <time>2020-05-25T16:58:43Z</time>
      </trkpt>
      <trkpt lat="43.55347" lon="1.16791">
        <ele>202</ele>
        <time>2020-05-25T16:58:51Z</time>
      </trkpt>
      <trkpt lat="43.55351" lon="1.16778">
        <ele>202</ele>
        <time>2020-05-25T16:58:58Z</time>
      </trkpt>
      <trkpt lat="43.55353" lon="1.16764">
        <ele>201</ele>
        <time>2020-05-25T16:59:07Z</time>
      </trkpt>
      <trkpt lat="43.55357" lon="1.16752">
        <ele>200</ele>
        <time>2020-05-25T16:59:15Z</time>
      </trkpt>
      <trkpt lat="43.55359" lon="1.16739">
        <ele>201</ele>
        <time>2020-05-25T16:59:22Z</time>
      </trkpt>
      <trkpt lat="43.55365" lon="1.16724">
        <ele>201</ele>
        <time>2020-05-25T16:59:32Z</time>
      </trkpt>
      <trkpt lat="43.55367" lon="1.16711">
        <ele>202</ele>
        <time>2020-05-25T16:59:40Z</time>
      </trkpt>
      <trkpt lat="43.55375" lon="1.16704">
        <ele>201</ele>
        <time>2020-05-25T16:59:47Z</time>
      </trkpt>
      <trkpt lat="43.55377" lon="1.16691">
        <ele>200</ele>
        <time>2020-05-25T16:59:55Z</time>
      </trkpt>
      <trkpt lat="43.55378" lon="1.16678">
        <ele>199</ele>
        <time>2020-05-25T17:00:03Z</time>
      </trkpt>
      <trkpt lat="43.55381" lon="1.16665">
        <ele>196</ele>
        <time>2020-05-25T17:00:11Z</time>
      </trkpt>
      <trkpt lat="43.55385" lon="1.16654">
        <ele>194</ele>
        <time>2020-05-25T17:00:18Z</time>
      </trkpt>
      <trkpt lat="43.55389" lon="1.16642">
        <ele>192</ele>
        <time>2020-05-25T17:00:26Z</time>
      </trkpt>
      <trkpt lat="43.55391" lon="1.16628">
        <ele>190</ele>
        <time>2020-05-25T17:00:34Z</time>
      </trkpt>
      <trkpt lat="43.55392" lon="1.16616">
        <ele>189</ele>
        <time>2020-05-25T17:00:42Z</time>
      </trkpt>
      <trkpt lat="43.55396" lon="1.16604">
        <ele>188</ele>
        <time>2020-05-25T17:00:49Z</time>
      </trkpt>
      <trkpt lat="43.55401" lon="1.16593">
        <ele>186</ele>
        <time>2020-05-25T17:00:57Z</time>
      </trkpt>
      <trkpt lat="43.55405" lon="1.16581">
        <ele>184</ele>
        <time>2020-05-25T17:01:05Z</time>
      </trkpt>
      <trkpt lat="43.5541" lon="1.1657">
        <ele>183</ele>
        <time>2020-05-25T17:01:12Z</time>
      </trkpt>
      <trkpt lat="43.55414" lon="1.16557">
        <ele>180</ele>
        <time>2020-05-25T17:01:21Z</time>
      </trkpt>
      <trkpt lat="43.55417" lon="1.16545">
        <ele>180</ele>
        <time>2020-05-25T17:01:28Z</time>
      </trkpt>
      <trkpt lat="43.55411" lon="1.16535">
        <ele>179</ele>
        <time>2020-05-25T17:01:35Z</time>
      </trkpt>
      <trkpt lat="43.55406" lon="1.16525">
        <ele>178</ele>
        <time>2020-05-25T17:01:43Z</time>
      </trkpt>
      <trkpt lat="43.55402" lon="1.16513">
        <ele>176</ele>
        <time>2020-05-25T17:01:50Z</time>
      </trkpt>
      <trkpt lat="43.55396" lon="1.16503">
        <ele>174</ele>
        <time>2020-05-25T17:01:58Z</time>
      </trkpt>
      <trkpt lat="43.55399" lon="1.1649">
        <ele>172</ele>
        <time>2020-05-25T17:02:06Z</time>
      </trkpt>
      <trkpt lat="43.55403" lon="1.16477">
        <ele>172</ele>
        <time>2020-05-25T17:02:14Z</time>
      </trkpt>
      <trkpt lat="43.55407" lon="1.16465">
        <ele>172</ele>
        <time>2020-05-25T17:02:22Z</time>
      </trkpt>
      <trkpt lat="43.55409" lon="1.16453">
        <ele>171</ele>
        <time>2020-05-25T17:02:29Z</time>
      </trkpt>
      <trkpt lat="43.55411" lon="1.16438">
        <ele>170</ele>
        <time>2020-05-25T17:02:38Z</time>
      </trkpt>
      <trkpt lat="43.55415" lon="1.16426">
        <ele>171</ele>
        <time>2020-05-25T17:02:45Z</time>
      </trkpt>
      <trkpt lat="43.55419" lon="1.16414">
        <ele>171</ele>
        <time>2020-05-25T17:02:53Z</time>
      </trkpt>
      <trkpt lat="43.55424" lon="1.16403">
        <ele>171</ele>
        <time>2020-05-25T17:03:01Z</time>
      </trkpt>
      <trkpt lat="43.55425" lon="1.1639">
        <ele>173</ele>
        <time>2020-05-25T17:03:08Z</time>
      </trkpt>
      <trkpt lat="43.55427" lon="1.16377">
        <ele>176</ele>
        <time>2020-05-25T17:03:16Z</time>
      </trkpt>
      <trkpt lat="43.55435" lon="1.16369">
        <ele>180</ele>
        <time>2020-05-25T17:03:25Z</time>
      </trkpt>
      <trkpt lat="43.55437" lon="1.16356">
        <ele>182</ele>
        <time>2020-05-25T17:03:33Z</time>
      </trkpt>
      <trkpt lat="43.55446" lon="1.1635">
        <ele>184</ele>
        <time>2020-05-25T17:03:41Z</time>
      </trkpt>
      <trkpt lat="43.55454" lon="1.16345">
        <ele>188</ele>
        <time>2020-05-25T17:03:49Z</time>
      </trkpt>
      <trkpt lat="43.55464" lon="1.1634">
        <ele>195</ele>
        <time>2020-05-25T17:03:58Z</time>
      </trkpt>
      <trkpt lat="43.55472" lon="1.16333">
        <ele>199</ele>
        <time>2020-05-25T17:04:06Z</time>
      </trkpt>
      <trkpt lat="43.5548" lon="1.16328">
        <ele>203</ele>
        <time>2020-05-25T17:04:14Z</time>
      </trkpt>
      <trkpt lat="43.55489" lon="1.16321">
        <ele>204</ele>
        <time>2020-05-25T17:04:22Z</time>
      </trkpt>
      <trkpt lat="43.55497" lon="1.16316">
        <ele>202</ele>
        <time>2020-05-25T17:04:30Z</time>
      </trkpt>
      <trkpt lat="43.55503" lon="1.16305">
        <ele>206</ele>
        <time>2020-05-25T17:04:38Z</time>
      </trkpt>
      <trkpt lat="43.5551" lon="1.16298">
        <ele>207</ele>
        <time>2020-05-25T17:04:45Z</time>
      </trkpt>
      <trkpt lat="43.55518" lon="1.16291">
        <ele>207</ele>
        <time>2020-05-25T17:04:53Z</time>
      </trkpt>
      <trkpt lat="43.55527" lon="1.16287">
        <ele>207</ele>
        <time>2020-05-25T17:05:00Z</time>
      </trkpt>
      <trkpt lat="43.55533" lon="1.16276">
        <ele>208</ele>
        <time>2020-05-25T17:05:08Z</time>
      </trkpt>
      <trkpt lat="43.55537" lon="1.16264">
        <ele>210</ele>
        <time>2020-05-25T17:05:16Z</time>
      </trkpt>
      <trkpt lat="43.55546" lon="1.16259">
        <ele>211</ele>
        <time>2020-05-25T17:05:24Z</time>
      </trkpt>
      <trkpt lat="43.55553" lon="1.16251">
        <ele>212</ele>
        <time>2020-05-25T17:05:31Z</time>
      </trkpt>
      <trkpt lat="43.55559" lon="1.1624">
        <ele>213</ele>
        <time>2020-05-25T17:05:39Z</time>
      </trkpt>
      <trkpt lat="43.55567" lon="1.1623">
        <ele>214</ele>
        <time>2020-05-25T17:05:48Z</time>
      </trkpt>
      <trkpt lat="43.55575" lon="1.16221">
        <ele>215</ele>
        <time>2020-05-25T17:05:56Z</time>
      </trkpt>
      <trkpt lat="43.55583" lon="1.16213">
        <ele>219</ele>
        <time>2020-05-25T17:06:05Z</time>
      </trkpt>
      <trkpt lat="43.5559" lon="1.16204">
        <ele>221</ele>
        <time>2020-05-25T17:06:13Z</time>
      </trkpt>
      <trkpt lat="43.55596" lon="1.16193">
        <ele>223</ele>
        <time>2020-05-25T17:06:21Z</time>
      </trkpt>
      <trkpt lat="43.55599" lon="1.1618">
        <ele>223</ele>
        <time>2020-05-25T17:06:28Z</time>
      </trkpt>
      <trkpt lat="43.55606" lon="1.1617">
        <ele>226</ele>
        <time>2020-05-25T17:06:37Z</time>
      </trkpt>
      <trkpt lat="43.55612" lon="1.16161">
        <ele>227</ele>
        <time>2020-05-25T17:06:44Z</time>
      </trkpt>
      <trkpt lat="43.55621" lon="1.16156">
        <ele>228</ele>
        <time>2020-05-25T17:06:51Z</time>
      </trkpt>
      <trkpt lat="43.55628" lon="1.16148">
        <ele>229</ele>
        <time>2020-05-25T17:06:59Z</time>
      </trkpt>
      <trkpt lat="43.55632" lon="1.16135">
        <ele>231</ele>
        <time>2020-05-25T17:07:07Z</time>
      </trkpt>
      <trkpt lat="43.55639" lon="1.16126">
        <ele>231</ele>
        <time>2020-05-25T17:07:15Z</time>
      </trkpt>
      <trkpt lat="43.55646" lon="1.16118">
        <ele>229</ele>
        <time>2020-05-25T17:07:22Z</time>
      </trkpt>
      <trkpt lat="43.5565" lon="1.16106">
        <ele>227</ele>
        <time>2020-05-25T17:07:30Z</time>
      </trkpt>
      <trkpt lat="43.55659" lon="1.16099">
        <ele>226</ele>
        <time>2020-05-25T17:07:38Z</time>
      </trkpt>
      <trkpt lat="43.55668" lon="1.1609">
        <ele>224</ele>
        <time>2020-05-25T17:07:47Z</time>
      </trkpt>
      <trkpt lat="43.55673" lon="1.16079">
        <ele>224</ele>
        <time>2020-05-25T17:07:55Z</time>
      </trkpt>
      <trkpt lat="43.55681" lon="1.16072">
        <ele>224</ele>
        <time>2020-05-25T17:08:02Z</time>
      </trkpt>
      <trkpt lat="43.55689" lon="1.16063">
        <ele>226</ele>
        <time>2020-05-25T17:08:10Z</time>
      </trkpt>
      <trkpt lat="43.5569" lon="1.1605">
        <ele>228</ele>
        <time>2020-05-25T17:08:18Z</time>
      </trkpt>
      <trkpt lat="43.55689" lon="1.16038">
        <ele>229</ele>
        <time>2020-05-25T17:08:25Z</time>
      </trkpt>
      <trkpt lat="43.55687" lon="1.16026">
        <ele>230</ele>
        <time>2020-05-25T17:08:33Z</time>
      </trkpt>
      <trkpt lat="43.55686" lon="1.16013">
        <ele>232</ele>
        <time>2020-05-25T17:08:40Z</time>
      </trkpt>
      <trkpt lat="43.55688" lon="1.15999">
        <ele>230</ele>
        <time>2020-05-25T17:08:48Z</time>
      </trkpt>
      <trkpt lat="43.5569" lon="1.15986">
        <ele>231</ele>
        <time>2020-05-25T17:08:56Z</time>
      </trkpt>
      <trkpt lat="43.55689" lon="1.15972">
        <ele>229</ele>
        <time>2020-05-25T17:09:04Z</time>
      </trkpt>
      <trkpt lat="43.55689" lon="1.15959">
        <ele>228</ele>
        <time>2020-05-25T17:09:12Z</time>
      </trkpt>
      <trkpt lat="43.55688" lon="1.15946">
        <ele>226</ele>
        <time>2020-05-25T17:09:20Z</time>
      </trkpt>
      <trkpt lat="43.55687" lon="1.15934">
        <ele>225</ele>
        <time>2020-05-25T17:09:27Z</time>
      </trkpt>
      <trkpt lat="43.55689" lon="1.1592">
        <ele>223</ele>
        <time>2020-05-25T17:09:35Z</time>
      </trkpt>
      <trkpt lat="43.55697" lon="1.15916">
        <ele>223</ele>
        <time>2020-05-25T17:09:42Z</time>
      </trkpt>
      <trkpt lat="43.55707" lon="1.15913">
        <ele>230</ele>
        <time>2020-05-25T17:09:52Z</time>
      </trkpt>
      <trkpt lat="43.55706" lon="1.15899">
        <ele>235</ele>
        <time>2020-05-25T17:10:01Z</time>
      </trkpt>
      <trkpt lat="43.55701" lon="1.15888">
        <ele>238</ele>
        <time>2020-05-25T17:10:09Z</time>
      </trkpt>
      <trkpt lat="43.55699" lon="1.15875">
        <ele>237</ele>
        <time>2020-05-25T17:10:16Z</time>
      </trkpt>
      <trkpt lat="43.55699" lon="1.15862">
        <ele>235</ele>
        <time>2020-05-25T17:10:24Z</time>
      </trkpt>
      <trkpt lat="43.55699" lon="1.15849">
        <ele>234</ele>
        <time>2020-05-25T17:10:32Z</time>
      </trkpt>
      <trkpt lat="43.55693" lon="1.15839">
        <ele>232</ele>
        <time>2020-05-25T17:10:39Z</time>
      </trkpt>
      <trkpt lat="43.55685" lon="1.15835">
        <ele>232</ele>
        <time>2020-05-25T17:10:47Z</time>
      </trkpt>
      <trkpt lat="43.55676" lon="1.15831">
        <ele>232</ele>
        <time>2020-05-25T17:10:54Z</time>
      </trkpt>
      <trkpt lat="43.5567" lon="1.15821">
        <ele>236</ele>
        <time>2020-05-25T17:11:02Z</time>
      </trkpt>
      <trkpt lat="43.55675" lon="1.15809">
        <ele>237</ele>
        <time>2020-05-25T17:11:10Z</time>
      </trkpt>
      <trkpt lat="43.55681" lon="1.15794">
        <ele>237</ele>
        <time>2020-05-25T17:11:20Z</time>
      </trkpt>
      <trkpt lat="43.55688" lon="1.15785">
        <ele>235</ele>
        <time>2020-05-25T17:11:28Z</time>
      </trkpt>
      <trkpt lat="43.55695" lon="1.15774">
        <ele>234</ele>
        <time>2020-05-25T17:11:36Z</time>
      </trkpt>
      <trkpt lat="43.557" lon="1.15764">
        <ele>233</ele>
        <time>2020-05-25T17:11:44Z</time>
      </trkpt>
      <trkpt lat="43.55701" lon="1.15751">
        <ele>233</ele>
        <time>2020-05-25T17:11:51Z</time>
      </trkpt>
      <trkpt lat="43.55706" lon="1.1574">
        <ele>230</ele>
        <time>2020-05-25T17:11:59Z</time>
      </trkpt>
      <trkpt lat="43.55714" lon="1.15733">
        <ele>230</ele>
        <time>2020-05-25T17:12:06Z</time>
      </trkpt>
      <trkpt lat="43.55721" lon="1.15723">
        <ele>230</ele>
        <time>2020-05-25T17:12:15Z</time>
      </trkpt>
      <trkpt lat="43.55722" lon="1.1571">
        <ele>231</ele>
        <time>2020-05-25T17:12:23Z</time>
      </trkpt>
      <trkpt lat="43.55726" lon="1.15697">
        <ele>234</ele>
        <time>2020-05-25T17:12:31Z</time>
      </trkpt>
      <trkpt lat="43.55721" lon="1.15686">
        <ele>237</ele>
        <time>2020-05-25T17:12:39Z</time>
      </trkpt>
      <trkpt lat="43.55718" lon="1.15674">
        <ele>239</ele>
        <time>2020-05-25T17:12:46Z</time>
      </trkpt>
      <trkpt lat="43.55708" lon="1.15668">
        <ele>241</ele>
        <time>2020-05-25T17:12:55Z</time>
      </trkpt>
      <trkpt lat="43.55702" lon="1.15658">
        <ele>245</ele>
        <time>2020-05-25T17:13:03Z</time>
      </trkpt>
      <trkpt lat="43.55696" lon="1.15648">
        <ele>249</ele>
        <time>2020-05-25T17:13:11Z</time>
      </trkpt>
      <trkpt lat="43.55695" lon="1.15635">
        <ele>252</ele>
        <time>2020-05-25T17:13:19Z</time>
      </trkpt>
      <trkpt lat="43.55701" lon="1.15623">
        <ele>248</ele>
        <time>2020-05-25T17:13:28Z</time>
      </trkpt>
      <trkpt lat="43.55704" lon="1.15611">
        <ele>248</ele>
        <time>2020-05-25T17:13:35Z</time>
      </trkpt>
      <trkpt lat="43.55706" lon="1.15598">
        <ele>248</ele>
        <time>2020-05-25T17:13:43Z</time>
      </trkpt>
      <trkpt lat="43.55711" lon="1.15587">
        <ele>249</ele>
        <time>2020-05-25T17:13:51Z</time>
      </trkpt>
      <trkpt lat="43.55717" lon="1.15576">
        <ele>250</ele>
        <time>2020-05-25T17:13:58Z</time>
      </trkpt>
      <trkpt lat="43.5572" lon="1.15563">
        <ele>252</ele>
        <time>2020-05-25T17:14:06Z</time>
      </trkpt>
      <trkpt lat="43.55721" lon="1.1555">
        <ele>253</ele>
        <time>2020-05-25T17:14:14Z</time>
      </trkpt>
      <trkpt lat="43.55728" lon="1.15538">
        <ele>254</ele>
        <time>2020-05-25T17:14:23Z</time>
      </trkpt>
      <trkpt lat="43.55735" lon="1.1553">
        <ele>256</ele>
        <time>2020-05-25T17:14:31Z</time>
      </trkpt>
      <trkpt lat="43.55742" lon="1.15518">
        <ele>257</ele>
        <time>2020-05-25T17:14:40Z</time>
      </trkpt>
      <trkpt lat="43.55744" lon="1.15505">
        <ele>259</ele>
        <time>2020-05-25T17:14:48Z</time>
      </trkpt>
      <trkpt lat="43.55749" lon="1.15494">
        <ele>262</ele>
        <time>2020-05-25T17:14:56Z</time>
      </trkpt>
      <trkpt lat="43.55754" lon="1.15482">
        <ele>265</ele>
        <time>2020-05-25T17:15:04Z</time>
      </trkpt>
      <trkpt lat="43.55757" lon="1.15469">
        <ele>271</ele>
        <time>2020-05-25T17:15:13Z</time>
      </trkpt>
      <trkpt lat="43.55753" lon="1.15457">
        <ele>272</ele>
        <time>2020-05-25T17:15:21Z</time>
      </trkpt>
      <trkpt lat="43.55754" lon="1.15445">
        <ele>273</ele>
        <time>2020-05-25T17:15:28Z</time>
      </trkpt>
      <trkpt lat="43.55758" lon="1.15434">
        <ele>274</ele>
        <time>2020-05-25T17:15:35Z</time>
      </trkpt>
      <trkpt lat="43.55762" lon="1.15421">
        <ele>275</ele>
        <time>2020-05-25T17:15:43Z</time>
      </trkpt>
      <trkpt lat="43.55759" lon="1.15409">
        <ele>277</ele>
        <time>2020-05-25T17:15:51Z</time>
      </trkpt>
      <trkpt lat="43.55749" lon="1.15411">
        <ele>274</ele>
        <time>2020-05-25T17:15:59Z</time>
      </trkpt>
      <trkpt lat="43.5574" lon="1.15409">
        <ele>272</ele>
        <time>2020-05-25T17:16:06Z</time>
      </trkpt>
      <trkpt lat="43.55738" lon="1.15398">
        <ele>269</ele>
        <time>2020-05-25T17:16:14Z</time>
      </trkpt>
      <trkpt lat="43.55736" lon="1.15385">
        <ele>265</ele>
        <time>2020-05-25T17:16:22Z</time>
      </trkpt>
      <trkpt lat="43.55733" lon="1.15371">
        <ele>264</ele>
        <time>2020-05-25T17:16:30Z</time>
      </trkpt>
      <trkpt lat="43.5573" lon="1.15358">
        <ele>265</ele>
        <time>2020-05-25T17:16:38Z</time>
      </trkpt>
      <trkpt lat="43.55727" lon="1.15346">
        <ele>265</ele>
        <time>2020-05-25T17:16:46Z</time>
      </trkpt>
      <trkpt lat="43.55725" lon="1.15333">
        <ele>266</ele>
        <time>2020-05-25T17:16:53Z</time>
      </trkpt>
      <trkpt lat="43.55724" lon="1.15319">
        <ele>265</ele>
        <time>2020-05-25T17:17:01Z</time>
      </trkpt>
      <trkpt lat="43.55722" lon="1.15304">
        <ele>264</ele>
        <time>2020-05-25T17:17:10Z</time>
      </trkpt>
      <trkpt lat="43.55718" lon="1.15292">
        <ele>264</ele>
        <time>2020-05-25T17:17:18Z</time>
      </trkpt>
      <trkpt lat="43.55718" lon="1.15279">
        <ele>262</ele>
        <time>2020-05-25T17:17:26Z</time>
      </trkpt>
      <trkpt lat="43.55717" lon="1.15265">
        <ele>261</ele>
        <time>2020-05-25T17:17:34Z</time>
      </trkpt>
      <trkpt lat="43.55715" lon="1.15251">
        <ele>261</ele>
        <time>2020-05-25T17:17:42Z</time>
      </trkpt>
      <trkpt lat="43.55711" lon="1.15238">
        <ele>263</ele>
        <time>2020-05-25T17:17:50Z</time>
      </trkpt>
      <trkpt lat="43.5571" lon="1.15226">
        <ele>265</ele>
        <time>2020-05-25T17:17:58Z</time>
      </trkpt>
      <trkpt lat="43.55707" lon="1.15214">
        <ele>267</ele>
        <time>2020-05-25T17:18:05Z</time>
      </trkpt>
      <trkpt lat="43.55706" lon="1.152">
        <ele>269</ele>
        <time>2020-05-25T17:18:14Z</time>
      </trkpt>
      <trkpt lat="43.55706" lon="1.15185">
        <ele>268</ele>
        <time>2020-05-25T17:18:22Z</time>
      </trkpt>
      <trkpt lat="43.55702" lon="1.15172">
        <ele>270</ele>
        <time>2020-05-25T17:18:30Z</time>
      </trkpt>
      <trkpt lat="43.55704" lon="1.15159">
        <ele>270</ele>
        <time>2020-05-25T17:18:38Z</time>
      </trkpt>
      <trkpt lat="43.55706" lon="1.15146">
        <ele>269</ele>
        <time>2020-05-25T17:18:46Z</time>
      </trkpt>
      <trkpt lat="43.55699" lon="1.15136">
        <ele>269</ele>
        <time>2020-05-25T17:18:54Z</time>
      </trkpt>
      <trkpt lat="43.55699" lon="1.15121">
        <ele>270</ele>
        <time>2020-05-25T17:19:03Z</time>
      </trkpt>
      <trkpt lat="43.55698" lon="1.15107">
        <ele>270</ele>
        <time>2020-05-25T17:19:11Z</time>
      </trkpt>
      <trkpt lat="43.55695" lon="1.15095">
        <ele>268</ele>
        <time>2020-05-25T17:19:18Z</time>
      </trkpt>
      <trkpt lat="43.55692" lon="1.15083">
        <ele>269</ele>
        <time>2020-05-25T17:19:26Z</time>
      </trkpt>
      <trkpt lat="43.5569" lon="1.15071">
        <ele>269</ele>
        <time>2020-05-25T17:19:33Z</time>
      </trkpt>
      <trkpt lat="43.55689" lon="1.15058">
        <ele>268</ele>
        <time>2020-05-25T17:19:40Z</time>
      </trkpt>
      <trkpt lat="43.55687" lon="1.15045">
        <ele>266</ele>
        <time>2020-05-25T17:19:48Z</time>
      </trkpt>
      <trkpt lat="43.55686" lon="1.15032">
        <ele>264</ele>
        <time>2020-05-25T17:19:57Z</time>
      </trkpt>
      <trkpt lat="43.55683" lon="1.15018">
        <ele>262</ele>
        <time>2020-05-25T17:20:05Z</time>
      </trkpt>
      <trkpt lat="43.5568" lon="1.15005">
        <ele>261</ele>
        <time>2020-05-25T17:20:13Z</time>
      </trkpt>
      <trkpt lat="43.5568" lon="1.14992">
        <ele>259</ele>
        <time>2020-05-25T17:20:21Z</time>
      </trkpt>
      <trkpt lat="43.55681" lon="1.14979">
        <ele>258</ele>
        <time>2020-05-25T17:20:28Z</time>
      </trkpt>
      <trkpt lat="43.55689" lon="1.14972">
        <ele>256</ele>
        <time>2020-05-25T17:20:36Z</time>
      </trkpt>
      <trkpt lat="43.55698" lon="1.14969">
        <ele>254</ele>
        <time>2020-05-25T17:20:43Z</time>
      </trkpt>
      <trkpt lat="43.55709" lon="1.14965">
        <ele>252</ele>
        <time>2020-05-25T17:20:52Z</time>
      </trkpt>
      <trkpt lat="43.55719" lon="1.14959">
        <ele>251</ele>
        <time>2020-05-25T17:21:01Z</time>
      </trkpt>
      <trkpt lat="43.55728" lon="1.14955">
        <ele>249</ele>
        <time>2020-05-25T17:21:09Z</time>
      </trkpt>
      <trkpt lat="43.55737" lon="1.14953">
        <ele>247</ele>
        <time>2020-05-25T17:21:17Z</time>
      </trkpt>
      <trkpt lat="43.55746" lon="1.14949">
        <ele>246</ele>
        <time>2020-05-25T17:21:24Z</time>
      </trkpt>
      <trkpt lat="43.55755" lon="1.14944">
        <ele>245</ele>
        <time>2020-05-25T17:21:32Z</time>
      </trkpt>
      <trkpt lat="43.55764" lon="1.14939">
        <ele>244</ele>
        <time>2020-05-25T17:21:40Z</time>
      </trkpt>
      <trkpt lat="43.55772" lon="1.14933">
        <ele>243</ele>
        <time>2020-05-25T17:21:47Z</time>
      </trkpt>
      <trkpt lat="43.55781" lon="1.14929">
        <ele>241</ele>
        <time>2020-05-25T17:21:55Z</time>
      </trkpt>
      <trkpt lat="43.5579" lon="1.14923">
        <ele>239</ele>
        <time>2020-05-25T17:22:03Z</time>
      </trkpt>
      <trkpt lat="43.55801" lon="1.14918">
        <ele>238</ele>
        <time>2020-05-25T17:22:12Z</time>
      </trkpt>
      <trkpt lat="43.55811" lon="1.14915">
        <ele>239</ele>
        <time>2020-05-25T17:22:20Z</time>
      </trkpt>
      <trkpt lat="43.5582" lon="1.14909">
        <ele>238</ele>
        <time>2020-05-25T17:22:29Z</time>
      </trkpt>
      <trkpt lat="43.55829" lon="1.14904">
        <ele>236</ele>
        <time>2020-05-25T17:22:36Z</time>
      </trkpt>
      <trkpt lat="43.55839" lon="1.149">
        <ele>234</ele>
        <time>2020-05-25T17:22:45Z</time>
      </trkpt>
      <trkpt lat="43.55848" lon="1.14896">
        <ele>233</ele>
        <time>2020-05-25T17:22:52Z</time>
      </trkpt>
      <trkpt lat="43.55856" lon="1.14889">
        <ele>231</ele>
        <time>2020-05-25T17:23:00Z</time>
      </trkpt>
      <trkpt lat="43.55865" lon="1.14885">
        <ele>230</ele>
        <time>2020-05-25T17:23:07Z</time>
      </trkpt>
      <trkpt lat="43.55875" lon="1.14882">
        <ele>230</ele>
        <time>2020-05-25T17:23:16Z</time>
      </trkpt>
      <trkpt lat="43.55883" lon="1.14877">
        <ele>231</ele>
        <time>2020-05-25T17:23:23Z</time>
      </trkpt>
      <trkpt lat="43.55892" lon="1.14872">
        <ele>231</ele>
        <time>2020-05-25T17:23:31Z</time>
      </trkpt>
      <trkpt lat="43.559" lon="1.14866">
        <ele>232</ele>
        <time>2020-05-25T17:23:38Z</time>
      </trkpt>
      <trkpt lat="43.55909" lon="1.14861">
        <ele>230</ele>
        <time>2020-05-25T17:23:46Z</time>
      </trkpt>
      <trkpt lat="43.55917" lon="1.14854">
        <ele>229</ele>
        <time>2020-05-25T17:23:53Z</time>
      </trkpt>
      <trkpt lat="43.55926" lon="1.14847">
        <ele>227</ele>
        <time>2020-05-25T17:24:02Z</time>
      </trkpt>
      <trkpt lat="43.5593" lon="1.14835">
        <ele>224</ele>
        <time>2020-05-25T17:24:10Z</time>
      </trkpt>
      <trkpt lat="43.55927" lon="1.14822">
        <ele>224</ele>
        <time>2020-05-25T17:24:18Z</time>
      </trkpt>
      <trkpt lat="43.55926" lon="1.1481">
        <ele>226</ele>
        <time>2020-05-25T17:24:25Z</time>
      </trkpt>
      <trkpt lat="43.55922" lon="1.14798">
        <ele>226</ele>
        <time>2020-05-25T17:24:32Z</time>
      </trkpt>
      <trkpt lat="43.55919" lon="1.14785">
        <ele>224</ele>
        <time>2020-05-25T17:24:40Z</time>
      </trkpt>
      <trkpt lat="43.55916" lon="1.14773">
        <ele>225</ele>
        <time>2020-05-25T17:24:48Z</time>
      </trkpt>
      <trkpt lat="43.55912" lon="1.14761">
        <ele>224</ele>
        <time>2020-05-25T17:24:55Z</time>
      </trkpt>
      <trkpt lat="43.55906" lon="1.14748">
        <ele>224</ele>
        <time>2020-05-25T17:25:05Z</time>
      </trkpt>
      <trkpt lat="43.55904" lon="1.14735">
        <ele>223</ele>
        <time>2020-05-25T17:25:12Z</time>
      </trkpt>
      <trkpt lat="43.55902" lon="1.14722">
        <ele>223</ele>
        <time>2020-05-25T17:25:20Z</time>
      </trkpt>
      <trkpt lat="43.55899" lon="1.1471">
        <ele>224</ele>
        <time>2020-05-25T17:25:28Z</time>
      </trkpt>
      <trkpt lat="43.55896" lon="1.14697">
        <ele>226</ele>
        <time>2020-05-25T17:25:36Z</time>
      </trkpt>
      <trkpt lat="43.55892" lon="1.14685">
        <ele>230</ele>
        <time>2020-05-25T17:25:44Z</time>
      </trkpt>
      <trkpt lat="43.55888" lon="1.14673">
        <ele>232</ele>
        <time>2020-05-25T17:25:52Z</time>
      </trkpt>
      <trkpt lat="43.55884" lon="1.14662">
        <ele>234</ele>
        <time>2020-05-25T17:25:59Z</time>
      </trkpt>
      <trkpt lat="43.55882" lon="1.14649">
        <ele>234</ele>
        <time>2020-05-25T17:26:06Z</time>
      </trkpt>
      <trkpt lat="43.55877" lon="1.14637">
        <ele>234</ele>
        <time>2020-05-25T17:26:14Z</time>
      </trkpt>
      <trkpt lat="43.55875" lon="1.14625">
        <ele>234</ele>
        <time>2020-05-25T17:26:21Z</time>
      </trkpt>
      <trkpt lat="43.55873" lon="1.14613">
        <ele>235</ele>
        <time>2020-05-25T17:26:29Z</time>
      </trkpt>
      <trkpt lat="43.5587" lon="1.14601">
        <ele>236</ele>
        <time>2020-05-25T17:26:36Z</time>
      </trkpt>
      <trkpt lat="43.55866" lon="1.14588">
        <ele>235</ele>
        <time>2020-05-25T17:26:44Z</time>
      </trkpt>
      <trkpt lat="43.55864" lon="1.14576">
        <ele>236</ele>
        <time>2020-05-25T17:26:52Z</time>
      </trkpt>
      <trkpt lat="43.55859" lon="1.14566">
        <ele>235</ele>
        <time>2020-05-25T17:26:59Z</time>
      </trkpt>
      <trkpt lat="43.55856" lon="1.14553">
        <ele>236</ele>
        <time>2020-05-25T17:27:07Z</time>
      </trkpt>
      <trkpt lat="43.55865" lon="1.14549">
        <ele>236</ele>
        <time>2020-05-25T17:27:14Z</time>
      </trkpt>
      <trkpt lat="43.5587" lon="1.14537">
        <ele>233</ele>
        <time>2020-05-25T17:27:22Z</time>
      </trkpt>
      <trkpt lat="43.55874" lon="1.14525">
        <ele>233</ele>
        <time>2020-05-25T17:27:30Z</time>
      </trkpt>
      <trkpt lat="43.55874" lon="1.14512">
        <ele>234</ele>
        <time>2020-05-25T17:27:38Z</time>
      </trkpt>
      <trkpt lat="43.55874" lon="1.14498">
        <ele>235</ele>
        <time>2020-05-25T17:27:46Z</time>
      </trkpt>
      <trkpt lat="43.5587" lon="1.14485">
        <ele>236</ele>
        <time>2020-05-25T17:27:54Z</time>
      </trkpt>
      <trkpt lat="43.55867" lon="1.14472">
        <ele>236</ele>
        <time>2020-05-25T17:28:02Z</time>
      </trkpt>
      <trkpt lat="43.55864" lon="1.1446">
        <ele>236</ele>
        <time>2020-05-25T17:28:09Z</time>
      </trkpt>
      <trkpt lat="43.55861" lon="1.14446">
        <ele>235</ele>
        <time>2020-05-25T17:28:18Z</time>
      </trkpt>
      <trkpt lat="43.55861" lon="1.14433">
        <ele>234</ele>
        <time>2020-05-25T17:28:25Z</time>
      </trkpt>
      <trkpt lat="43.5586" lon="1.14421">
        <ele>231</ele>
        <time>2020-05-25T17:28:33Z</time>
      </trkpt>
      <trkpt lat="43.55858" lon="1.14408">
        <ele>230</ele>
        <time>2020-05-25T17:28:40Z</time>
      </trkpt>
      <trkpt lat="43.55857" lon="1.14395">
        <ele>226</ele>
        <time>2020-05-25T17:28:49Z</time>
      </trkpt>
      <trkpt lat="43.55859" lon="1.14383">
        <ele>226</ele>
        <time>2020-05-25T17:28:56Z</time>
      </trkpt>
      <trkpt lat="43.55859" lon="1.1437">
        <ele>226</ele>
        <time>2020-05-25T17:29:04Z</time>
      </trkpt>
      <trkpt lat="43.55856" lon="1.14357">
        <ele>227</ele>
        <time>2020-05-25T17:29:11Z</time>
      </trkpt>
      <trkpt lat="43.55849" lon="1.14346">
        <ele>228</ele>
        <time>2020-05-25T17:29:20Z</time>
      </trkpt>
      <trkpt lat="43.55848" lon="1.14334">
        <ele>228</ele>
        <time>2020-05-25T17:29:27Z</time>
      </trkpt>
      <trkpt lat="43.55848" lon="1.1432">
        <ele>230</ele>
        <time>2020-05-25T17:29:35Z</time>
      </trkpt>
      <trkpt lat="43.55845" lon="1.14307">
        <ele>232</ele>
        <time>2020-05-25T17:29:43Z</time>
      </trkpt>
      <trkpt lat="43.55843" lon="1.14294">
        <ele>233</ele>
        <time>2020-05-25T17:29:51Z</time>
      </trkpt>
      <trkpt lat="43.55843" lon="1.1428">
        <ele>233</ele>
        <time>2020-05-25T17:29:59Z</time>
      </trkpt>
      <trkpt lat="43.55845" lon="1.14266">
        <ele>236</ele>
        <time>2020-05-25T17:30:07Z</time>
      </trkpt>
      <trkpt lat="43.55843" lon="1.14253">
        <ele>238</ele>
        <time>2020-05-25T17:30:16Z</time>
      </trkpt>
      <trkpt lat="43.55838" lon="1.14241">
        <ele>239</ele>
        <time>2020-05-25T17:30:24Z</time>
      </trkpt>
      <trkpt lat="43.55837" lon="1.14228">
        <ele>239</ele>
        <time>2020-05-25T17:30:31Z</time>
      </trkpt>
      <trkpt lat="43.55837" lon="1.14215">
        <ele>239</ele>
        <time>2020-05-25T17:30:39Z</time>
      </trkpt>
      <trkpt lat="43.55834" lon="1.14203">
        <ele>241</ele>
        <time>2020-05-25T17:30:46Z</time>
      </trkpt>
      <trkpt lat="43.55834" lon="1.14189">
        <ele>243</ele>
        <time>2020-05-25T17:30:54Z</time>
      </trkpt>
      <trkpt lat="43.55835" lon="1.14175">
        <ele>244</ele>
        <time>2020-05-25T17:31:02Z</time>
      </trkpt>
      <trkpt lat="43.55833" lon="1.14163">
        <ele>245</ele>
        <time>2020-05-25T17:31:10Z</time>
      </trkpt>
      <trkpt lat="43.55839" lon="1.14153">
        <ele>242</ele>
        <time>2020-05-25T17:31:18Z</time>
      </trkpt>
      <trkpt lat="43.55841" lon="1.14139">
        <ele>240</ele>
        <time>2020-05-25T17:31:26Z</time>
      </trkpt>
      <trkpt lat="43.55836" lon="1.14128">
        <ele>241</ele>
        <time>2020-05-25T17:31:33Z</time>
      </trkpt>
      <trkpt lat="43.55835" lon="1.14114">
        <ele>242</ele>
        <time>2020-05-25T17:31:41Z</time>
      </trkpt>
      <trkpt lat="43.55836" lon="1.14101">
        <ele>242</ele>
        <time>2020-05-25T17:31:49Z</time>
      </trkpt>
      <trkpt lat="43.55836" lon="1.14087">
        <ele>243</ele>
        <time>2020-05-25T17:31:57Z</time>
      </trkpt>
      <trkpt lat="43.55837" lon="1.14074">
        <ele>242</ele>
        <time>2020-05-25T17:32:05Z</time>
      </trkpt>
      <trkpt lat="43.55838" lon="1.14061">
        <ele>244</ele>
        <time>2020-05-25T17:32:12Z</time>
      </trkpt>
      <trkpt lat="43.55837" lon="1.14048">
        <ele>241</ele>
        <time>2020-05-25T17:32:20Z</time>
      </trkpt>
      <trkpt lat="43.55836" lon="1.14035">
        <ele>240</ele>
        <time>2020-05-25T17:32:28Z</time>
      </trkpt>
      <trkpt lat="43.55833" lon="1.14022">
        <ele>239</ele>
        <time>2020-05-25T17:32:36Z</time>
      </trkpt>
      <trkpt lat="43.55834" lon="1.14009">
        <ele>239</ele>
        <time>2020-05-25T17:32:44Z</time>
      </trkpt>
      <trkpt lat="43.55833" lon="1.13996">
        <ele>239</ele>
        <time>2020-05-25T17:32:51Z</time>
      </trkpt>
      <trkpt lat="43.55836" lon="1.13984">
        <ele>238</ele>
        <time>2020-05-25T17:32:59Z</time>
      </trkpt>
      <trkpt lat="43.55838" lon="1.1397">
        <ele>237</ele>
        <time>2020-05-25T17:33:07Z</time>
      </trkpt>
      <trkpt lat="43.55837" lon="1.13957">
        <ele>236</ele>
        <time>2020-05-25T17:33:15Z</time>
      </trkpt>
      <trkpt lat="43.5584" lon="1.13944">
        <ele>236</ele>
        <time>2020-05-25T17:33:22Z</time>
      </trkpt>
      <trkpt lat="43.55841" lon="1.13931">
        <ele>235</ele>
        <time>2020-05-25T17:33:30Z</time>
      </trkpt>
      <trkpt lat="43.55842" lon="1.13918">
        <ele>234</ele>
        <time>2020-05-25T17:33:38Z</time>
      </trkpt>
      <trkpt lat="43.55843" lon="1.13906">
        <ele>232</ele>
        <time>2020-05-25T17:33:45Z</time>
      </trkpt>
      <trkpt lat="43.55838" lon="1.13895">
        <ele>231</ele>
        <time>2020-05-25T17:33:52Z</time>
      </trkpt>
      <trkpt lat="43.55833" lon="1.13884">
        <ele>230</ele>
        <time>2020-05-25T17:34:00Z</time>
      </trkpt>
      <trkpt lat="43.55832" lon="1.13871">
        <ele>229</ele>
        <time>2020-05-25T17:34:08Z</time>
      </trkpt>
      <trkpt lat="43.55833" lon="1.13857">
        <ele>229</ele>
        <time>2020-05-25T17:34:15Z</time>
      </trkpt>
      <trkpt lat="43.55831" lon="1.13845">
        <ele>228</ele>
        <time>2020-05-25T17:34:23Z</time>
      </trkpt>
      <trkpt lat="43.55827" lon="1.13833">
        <ele>226</ele>
        <time>2020-05-25T17:34:30Z</time>
      </trkpt>
      <trkpt lat="43.55829" lon="1.13821">
        <ele>226</ele>
        <time>2020-05-25T17:34:38Z</time>
      </trkpt>
      <trkpt lat="43.55827" lon="1.13808">
        <ele>226</ele>
        <time>2020-05-25T17:34:45Z</time>
      </trkpt>
      <trkpt lat="43.5583" lon="1.13796">
        <ele>227</ele>
        <time>2020-05-25T17:34:53Z</time>
      </trkpt>
      <trkpt lat="43.55831" lon="1.13783">
        <ele>231</ele>
        <time>2020-05-25T17:35:01Z</time>
      </trkpt>
      <trkpt lat="43.5584" lon="1.1378">
        <ele>236</ele>
        <time>2020-05-25T17:35:09Z</time>
      </trkpt>
      <trkpt lat="43.5585" lon="1.13777">
        <ele>236</ele>
        <time>2020-05-25T17:35:17Z</time>
      </trkpt>
      <trkpt lat="43.55859" lon="1.13778">
        <ele>235</ele>
        <time>2020-05-25T17:35:24Z</time>
      </trkpt>
      <trkpt lat="43.55866" lon="1.1377">
        <ele>233</ele>
        <time>2020-05-25T17:35:32Z</time>
      </trkpt>
      <trkpt lat="43.55871" lon="1.13758">
        <ele>231</ele>
        <time>2020-05-25T17:35:39Z</time>
      </trkpt>
      <trkpt lat="43.55871" lon="1.13746">
        <ele>230</ele>
        <time>2020-05-25T17:35:47Z</time>
      </trkpt>
      <trkpt lat="43.55869" lon="1.13731">
        <ele>231</ele>
        <time>2020-05-25T17:35:55Z</time>
      </trkpt>
      <trkpt lat="43.55871" lon="1.13718">
        <ele>231</ele>
        <time>2020-05-25T17:36:03Z</time>
      </trkpt>
      <trkpt lat="43.5587" lon="1.13706">
        <ele>230</ele>
        <time>2020-05-25T17:36:10Z</time>
      </trkpt>
      <trkpt lat="43.55873" lon="1.13694">
        <ele>229</ele>
        <time>2020-05-25T17:36:18Z</time>
      </trkpt>
      <trkpt lat="43.55875" lon="1.13682">
        <ele>228</ele>
        <time>2020-05-25T17:36:25Z</time>
      </trkpt>
      <trkpt lat="43.55877" lon="1.13669">
        <ele>229</ele>
        <time>2020-05-25T17:36:32Z</time>
      </trkpt>
      <trkpt lat="43.55883" lon="1.13659">
        <ele>230</ele>
        <time>2020-05-25T17:36:40Z</time>
      </trkpt>
      <trkpt lat="43.55887" lon="1.13646">
        <ele>229</ele>
        <time>2020-05-25T17:36:48Z</time>
      </trkpt>
      <trkpt lat="43.55889" lon="1.13633">
        <ele>228</ele>
        <time>2020-05-25T17:36:56Z</time>
      </trkpt>
      <trkpt lat="43.55893" lon="1.13621">
        <ele>228</ele>
        <time>2020-05-25T17:37:04Z</time>
      </trkpt>
      <trkpt lat="43.55892" lon="1.13608">
        <ele>228</ele>
        <time>2020-05-25T17:37:12Z</time>
      </trkpt>
      <trkpt lat="43.55888" lon="1.13596">
        <ele>230</ele>
        <time>2020-05-25T17:37:19Z</time>
      </trkpt>
      <trkpt lat="43.55885" lon="1.13584">
        <ele>230</ele>
        <time>2020-05-25T17:37:27Z</time>
      </trkpt>
      <trkpt lat="43.55879" lon="1.13573">
        <ele>230</ele>
        <time>2020-05-25T17:37:35Z</time>
      </trkpt>
      <trkpt lat="43.5587" lon="1.13568">
        <ele>231</ele>
        <time>2020-05-25T17:37:42Z</time>
      </trkpt>
      <trkpt lat="43.55866" lon="1.13557">
        <ele>231</ele>
        <time>2020-05-25T17:37:50Z</time>
      </trkpt>
      <trkpt lat="43.55865" lon="1.13545">
        <ele>232</ele>
        <time>2020-05-25T17:37:57Z</time>
      </trkpt>
      <trkpt lat="43.55862" lon="1.13533">
        <ele>231</ele>
        <time>2020-05-25T17:38:04Z</time>
      </trkpt>
      <trkpt lat="43.55863" lon="1.1352">
        <ele>232</ele>
        <time>2020-05-25T17:38:12Z</time>
      </trkpt>
      <trkpt lat="43.55854" lon="1.13515">
        <ele>233</ele>
        <time>2020-05-25T17:38:20Z</time>
      </trkpt>
      <trkpt lat="43.55847" lon="1.13507">
        <ele>235</ele>
        <time>2020-05-25T17:38:27Z</time>
      </trkpt>
      <trkpt lat="43.5584" lon="1.13515">
        <ele>236</ele>
        <time>2020-05-25T17:38:35Z</time>
      </trkpt>
      <trkpt lat="43.55832" lon="1.13507">
        <ele>237</ele>
        <time>2020-05-25T17:38:42Z</time>
      </trkpt>
      <trkpt lat="43.55835" lon="1.13494">
        <ele>237</ele>
        <time>2020-05-25T17:38:50Z</time>
      </trkpt>
      <trkpt lat="43.55832" lon="1.13482">
        <ele>235</ele>
        <time>2020-05-25T17:38:58Z</time>
      </trkpt>
      <trkpt lat="43.55829" lon="1.13467">
        <ele>232</ele>
        <time>2020-05-25T17:39:07Z</time>
      </trkpt>
      <trkpt lat="43.55833" lon="1.13455">
        <ele>226</ele>
        <time>2020-05-25T17:39:16Z</time>
      </trkpt>
      <trkpt lat="43.55839" lon="1.13444">
        <ele>221</ele>
        <time>2020-05-25T17:39:24Z</time>
      </trkpt>
      <trkpt lat="43.55841" lon="1.13431">
        <ele>220</ele>
        <time>2020-05-25T17:39:32Z</time>
      </trkpt>
      <trkpt lat="43.55837" lon="1.13417">
        <ele>221</ele>
        <time>2020-05-25T17:39:41Z</time>
      </trkpt>
      <trkpt lat="43.55838" lon="1.13405">
        <ele>221</ele>
        <time>2020-05-25T17:39:48Z</time>
      </trkpt>
      <trkpt lat="43.5584" lon="1.13392">
        <ele>222</ele>
        <time>2020-05-25T17:39:56Z</time>
      </trkpt>
      <trkpt lat="43.55842" lon="1.13379">
        <ele>223</ele>
        <time>2020-05-25T17:40:03Z</time>
      </trkpt>
      <trkpt lat="43.55837" lon="1.13368">
        <ele>223</ele>
        <time>2020-05-25T17:40:11Z</time>
      </trkpt>
      <trkpt lat="43.55832" lon="1.13355">
        <ele>223</ele>
        <time>2020-05-25T17:40:19Z</time>
      </trkpt>
      <trkpt lat="43.55831" lon="1.13341">
        <ele>223</ele>
        <time>2020-05-25T17:40:27Z</time>
      </trkpt>
      <trkpt lat="43.55832" lon="1.13329">
        <ele>220</ele>
        <time>2020-05-25T17:40:35Z</time>
      </trkpt>
      <trkpt lat="43.55834" lon="1.13316">
        <ele>216</ele>
        <time>2020-05-25T17:40:43Z</time>
      </trkpt>
      <trkpt lat="43.55843" lon="1.13311">
        <ele>217</ele>
        <time>2020-05-25T17:40:50Z</time>
      </trkpt>
      <trkpt lat="43.55851" lon="1.13303">
        <ele>219</ele>
        <time>2020-05-25T17:40:58Z</time>
      </trkpt>
      <trkpt lat="43.5586" lon="1.13305">
        <ele>223</ele>
        <time>2020-05-25T17:41:06Z</time>
      </trkpt>
      <trkpt lat="43.55869" lon="1.1331">
        <ele>225</ele>
        <time>2020-05-25T17:41:15Z</time>
      </trkpt>
      <trkpt lat="43.55875" lon="1.1332">
        <ele>226</ele>
        <time>2020-05-25T17:41:22Z</time>
      </trkpt>
      <trkpt lat="43.55886" lon="1.13321">
        <ele>226</ele>
        <time>2020-05-25T17:41:31Z</time>
      </trkpt>
      <trkpt lat="43.55894" lon="1.13318">
        <ele>229</ele>
        <time>2020-05-25T17:41:38Z</time>
      </trkpt>
      <trkpt lat="43.55904" lon="1.13314">
        <ele>235</ele>
        <time>2020-05-25T17:41:47Z</time>
      </trkpt>
      <trkpt lat="43.55912" lon="1.1331">
        <ele>239</ele>
        <time>2020-05-25T17:41:55Z</time>
      </trkpt>
      <trkpt lat="43.55921" lon="1.13307">
        <ele>243</ele>
        <time>2020-05-25T17:42:03Z</time>
      </trkpt>
      <trkpt lat="43.55932" lon="1.13307">
        <ele>244</ele>
        <time>2020-05-25T17:42:11Z</time>
      </trkpt>
      <trkpt lat="43.55941" lon="1.13305">
        <ele>246</ele>
        <time>2020-05-25T17:42:19Z</time>
      </trkpt>
      <trkpt lat="43.55953" lon="1.13306">
        <ele>247</ele>
        <time>2020-05-25T17:42:28Z</time>
      </trkpt>
      <trkpt lat="43.55963" lon="1.13305">
        <ele>248</ele>
        <time>2020-05-25T17:42:37Z</time>
      </trkpt>
      <trkpt lat="43.55972" lon="1.13303">
        <ele>248</ele>
        <time>2020-05-25T17:42:44Z</time>
      </trkpt>
      <trkpt lat="43.55982" lon="1.13302">
        <ele>248</ele>
        <time>2020-05-25T17:42:51Z</time>
      </trkpt>
      <trkpt lat="43.55991" lon="1.13306">
        <ele>249</ele>
        <time>2020-05-25T17:42:59Z</time>
      </trkpt>
      <trkpt lat="43.56" lon="1.13308">
        <ele>251</ele>
        <time>2020-05-25T17:43:07Z</time>
      </trkpt>
      <trkpt lat="43.56008" lon="1.13301">
        <ele>246</ele>
        <time>2020-05-25T17:43:15Z</time>
      </trkpt>
      <trkpt lat="43.56018" lon="1.133">
        <ele>236</ele>
        <time>2020-05-25T17:43:26Z</time>
      </trkpt>
      <trkpt lat="43.56027" lon="1.13301">
        <ele>231</ele>
        <time>2020-05-25T17:43:35Z</time>
      </trkpt>
      <trkpt lat="43.56037" lon="1.13303">
        <ele>227</ele>
        <time>2020-05-25T17:43:43Z</time>
      </trkpt>
      <trkpt lat="43.56046" lon="1.13303">
        <ele>223</ele>
        <time>2020-05-25T17:43:51Z</time>
      </trkpt>
      <trkpt lat="43.56055" lon="1.133">
        <ele>223</ele>
        <time>2020-05-25T17:43:58Z</time>
      </trkpt>
      <trkpt lat="43.56065" lon="1.133">
        <ele>226</ele>
        <time>2020-05-25T17:44:06Z</time>
      </trkpt>
      <trkpt lat="43.56068" lon="1.13288">
        <ele>227</ele>
        <time>2020-05-25T17:44:14Z</time>
      </trkpt>
      <trkpt lat="43.56077" lon="1.13292">
        <ele>226</ele>
        <time>2020-05-25T17:44:22Z</time>
      </trkpt>
      <trkpt lat="43.56083" lon="1.13303">
        <ele>232</ele>
        <time>2020-05-25T17:44:31Z</time>
      </trkpt>
      <trkpt lat="43.56092" lon="1.13303">
        <ele>241</ele>
        <time>2020-05-25T17:44:40Z</time>
      </trkpt>
      <trkpt lat="43.56102" lon="1.13305">
        <ele>244</ele>
        <time>2020-05-25T17:44:48Z</time>
      </trkpt>
      <trkpt lat="43.56095" lon="1.13312">
        <ele>250</ele>
        <time>2020-05-25T17:44:57Z</time>
      </trkpt>
      <trkpt lat="43.56105" lon="1.13306">
        <ele>249</ele>
        <time>2020-05-25T17:45:05Z</time>
      </trkpt>
      <trkpt lat="43.56115" lon="1.13301">
        <ele>249</ele>
        <time>2020-05-25T17:45:14Z</time>
      </trkpt>
      <trkpt lat="43.56123" lon="1.13296">
        <ele>249</ele>
        <time>2020-05-25T17:45:22Z</time>
      </trkpt>
      <trkpt lat="43.56132" lon="1.13294">
        <ele>249</ele>
        <time>2020-05-25T17:45:29Z</time>
      </trkpt>
      <trkpt lat="43.56142" lon="1.13294">
        <ele>252</ele>
        <time>2020-05-25T17:45:37Z</time>
      </trkpt>
      <trkpt lat="43.56151" lon="1.13293">
        <ele>254</ele>
        <time>2020-05-25T17:45:44Z</time>
      </trkpt>
      <trkpt lat="43.56161" lon="1.13292">
        <ele>254</ele>
        <time>2020-05-25T17:45:52Z</time>
      </trkpt>
      <trkpt lat="43.56171" lon="1.13294">
        <ele>256</ele>
        <time>2020-05-25T17:46:01Z</time>
      </trkpt>
      <trkpt lat="43.56181" lon="1.13295">
        <ele>257</ele>
        <time>2020-05-25T17:46:09Z</time>
      </trkpt>
      <trkpt lat="43.56191" lon="1.13295">
        <ele>264</ele>
        <time>2020-05-25T17:46:18Z</time>
      </trkpt>
      <trkpt lat="43.562" lon="1.1329">
        <ele>265</ele>
        <time>2020-05-25T17:46:26Z</time>
      </trkpt>
      <trkpt lat="43.56209" lon="1.13289">
        <ele>266</ele>
        <time>2020-05-25T17:46:33Z</time>
      </trkpt>
      <trkpt lat="43.56216" lon="1.13297">
        <ele>272</ele>
        <time>2020-05-25T17:46:42Z</time>
      </trkpt>
      <trkpt lat="43.56221" lon="1.13308">
        <ele>273</ele>
        <time>2020-05-25T17:46:49Z</time>
      </trkpt>
      <trkpt lat="43.56222" lon="1.13321">
        <ele>274</ele>
        <time>2020-05-25T17:46:57Z</time>
      </trkpt>
      <trkpt lat="43.56226" lon="1.13334">
        <ele>275</ele>
        <time>2020-05-25T17:47:05Z</time>
      </trkpt>
      <trkpt lat="43.56225" lon="1.13347">
        <ele>276</ele>
        <time>2020-05-25T17:47:12Z</time>
      </trkpt>
      <trkpt lat="43.56228" lon="1.13359">
        <ele>277</ele>
        <time>2020-05-25T17:47:20Z</time>
      </trkpt>
      <trkpt lat="43.56232" lon="1.13372">
        <ele>277</ele>
        <time>2020-05-25T17:47:28Z</time>
      </trkpt>
      <trkpt lat="43.56234" lon="1.13385">
        <ele>278</ele>
        <time>2020-05-25T17:47:36Z</time>
      </trkpt>
      <trkpt lat="43.56236" lon="1.13399">
        <ele>278</ele>
        <time>2020-05-25T17:47:44Z</time>
      </trkpt>
      <trkpt lat="43.56236" lon="1.13411">
        <ele>279</ele>
        <time>2020-05-25T17:47:51Z</time>
      </trkpt>
      <trkpt lat="43.56241" lon="1.13422">
        <ele>279</ele>
        <time>2020-05-25T17:47:58Z</time>
      </trkpt>
      <trkpt lat="43.56243" lon="1.13434">
        <ele>279</ele>
        <time>2020-05-25T17:48:06Z</time>
      </trkpt>
      <trkpt lat="43.56244" lon="1.13447">
        <ele>278</ele>
        <time>2020-05-25T17:48:14Z</time>
      </trkpt>
      <trkpt lat="43.56246" lon="1.1346">
        <ele>278</ele>
        <time>2020-05-25T17:48:21Z</time>
      </trkpt>
      <trkpt lat="43.56249" lon="1.13472">
        <ele>277</ele>
        <time>2020-05-25T17:48:28Z</time>
      </trkpt>
      <trkpt lat="43.56253" lon="1.13484">
        <ele>277</ele>
        <time>2020-05-25T17:48:36Z</time>
      </trkpt>
      <trkpt lat="43.56257" lon="1.13496">
        <ele>277</ele>
        <time>2020-05-25T17:48:44Z</time>
      </trkpt>
      <trkpt lat="43.56255" lon="1.13509">
        <ele>275</ele>
        <time>2020-05-25T17:48:51Z</time>
      </trkpt>
      <trkpt lat="43.56257" lon="1.13522">
        <ele>275</ele>
        <time>2020-05-25T17:48:59Z</time>
      </trkpt>
      <trkpt lat="43.56259" lon="1.13535">
        <ele>274</ele>
        <time>2020-05-25T17:49:07Z</time>
      </trkpt>
      <trkpt lat="43.56265" lon="1.13548">
        <ele>275</ele>
        <time>2020-05-25T17:49:16Z</time>
      </trkpt>
      <trkpt lat="43.56264" lon="1.1356">
        <ele>275</ele>
        <time>2020-05-25T17:49:23Z</time>
      </trkpt>
      <trkpt lat="43.56262" lon="1.13573">
        <ele>273</ele>
        <time>2020-05-25T17:49:30Z</time>
      </trkpt>
      <trkpt lat="43.56266" lon="1.13584">
        <ele>271</ele>
        <time>2020-05-25T17:49:38Z</time>
      </trkpt>
      <trkpt lat="43.56269" lon="1.13597">
        <ele>269</ele>
        <time>2020-05-25T17:49:46Z</time>
      </trkpt>
      <trkpt lat="43.56279" lon="1.13601">
        <ele>266</ele>
        <time>2020-05-25T17:49:54Z</time>
      </trkpt>
      <trkpt lat="43.56288" lon="1.13597">
        <ele>263</ele>
        <time>2020-05-25T17:50:03Z</time>
      </trkpt>
      <trkpt lat="43.56297" lon="1.136">
        <ele>262</ele>
        <time>2020-05-25T17:50:10Z</time>
      </trkpt>
      <trkpt lat="43.56301" lon="1.13587">
        <ele>260</ele>
        <time>2020-05-25T17:50:18Z</time>
      </trkpt>
      <trkpt lat="43.563" lon="1.13573">
        <ele>259</ele>
        <time>2020-05-25T17:50:27Z</time>
      </trkpt>
      <trkpt lat="43.56291" lon="1.13567">
        <ele>245</ele>
        <time>2020-05-25T17:50:39Z</time>
      </trkpt>
      <trkpt lat="43.56303" lon="1.13567">
        <ele>230</ele>
        <time>2020-05-25T17:50:54Z</time>
      </trkpt>
      <trkpt lat="43.56314" lon="1.1357">
        <ele>225</ele>
        <time>2020-05-25T17:51:03Z</time>
      </trkpt>
      <trkpt lat="43.56324" lon="1.13571">
        <ele>222</ele>
        <time>2020-05-25T17:51:11Z</time>
      </trkpt>
      <trkpt lat="43.56335" lon="1.13573">
        <ele>218</ele>
        <time>2020-05-25T17:51:21Z</time>
      </trkpt>
      <trkpt lat="43.56344" lon="1.13577">
        <ele>215</ele>
        <time>2020-05-25T17:51:29Z</time>
      </trkpt>
      <trkpt lat="43.56352" lon="1.13588">
        <ele>213</ele>
        <time>2020-05-25T17:51:38Z</time>
      </trkpt>
      <trkpt lat="43.56359" lon="1.13596">
        <ele>213</ele>
        <time>2020-05-25T17:51:45Z</time>
      </trkpt>
      <trkpt lat="43.56368" lon="1.13602">
        <ele>212</ele>
        <time>2020-05-25T17:51:53Z</time>
      </trkpt>
      <trkpt lat="43.56378" lon="1.13603">
        <ele>211</ele>
        <time>2020-05-25T17:52:01Z</time>
      </trkpt>
      <trkpt lat="43.56388" lon="1.13605">
        <ele>211</ele>
        <time>2020-05-25T17:52:09Z</time>
      </trkpt>
      <trkpt lat="43.56397" lon="1.13607">
        <ele>211</ele>
        <time>2020-05-25T17:52:16Z</time>
      </trkpt>
      <trkpt lat="43.56408" lon="1.13607">
        <ele>210</ele>
        <time>2020-05-25T17:52:25Z</time>
      </trkpt>
      <trkpt lat="43.56417" lon="1.13606">
        <ele>207</ele>
        <time>2020-05-25T17:52:33Z</time>
      </trkpt>
      <trkpt lat="43.56427" lon="1.13606">
        <ele>205</ele>
        <time>2020-05-25T17:52:41Z</time>
      </trkpt>
      <trkpt lat="43.56436" lon="1.1361">
        <ele>204</ele>
        <time>2020-05-25T17:52:48Z</time>
      </trkpt>
      <trkpt lat="43.56445" lon="1.13608">
        <ele>205</ele>
        <time>2020-05-25T17:52:56Z</time>
      </trkpt>
      <trkpt lat="43.56455" lon="1.13605">
        <ele>206</ele>
        <time>2020-05-25T17:53:04Z</time>
      </trkpt>
      <trkpt lat="43.56465" lon="1.13606">
        <ele>208</ele>
        <time>2020-05-25T17:53:12Z</time>
      </trkpt>
      <trkpt lat="43.56475" lon="1.13608">
        <ele>209</ele>
        <time>2020-05-25T17:53:20Z</time>
      </trkpt>
      <trkpt lat="43.56485" lon="1.13611">
        <ele>214</ele>
        <time>2020-05-25T17:53:29Z</time>
      </trkpt>
      <trkpt lat="43.56495" lon="1.13612">
        <ele>216</ele>
        <time>2020-05-25T17:53:38Z</time>
      </trkpt>
      <trkpt lat="43.56505" lon="1.13613">
        <ele>218</ele>
        <time>2020-05-25T17:53:46Z</time>
      </trkpt>
      <trkpt lat="43.56515" lon="1.13613">
        <ele>224</ele>
        <time>2020-05-25T17:53:55Z</time>
      </trkpt>
      <trkpt lat="43.56524" lon="1.13616">
        <ele>230</ele>
        <time>2020-05-25T17:54:04Z</time>
      </trkpt>
      <trkpt lat="43.56533" lon="1.13622">
        <ele>235</ele>
        <time>2020-05-25T17:54:12Z</time>
      </trkpt>
      <trkpt lat="43.56542" lon="1.13626">
        <ele>239</ele>
        <time>2020-05-25T17:54:21Z</time>
      </trkpt>
      <trkpt lat="43.56552" lon="1.13629">
        <ele>241</ele>
        <time>2020-05-25T17:54:29Z</time>
      </trkpt>
      <trkpt lat="43.56562" lon="1.13632">
        <ele>244</ele>
        <time>2020-05-25T17:54:37Z</time>
      </trkpt>
      <trkpt lat="43.56568" lon="1.1364">
        <ele>243</ele>
        <time>2020-05-25T17:54:44Z</time>
      </trkpt>
      <trkpt lat="43.56576" lon="1.13649">
        <ele>242</ele>
        <time>2020-05-25T17:54:52Z</time>
      </trkpt>
      <trkpt lat="43.56581" lon="1.13659">
        <ele>243</ele>
        <time>2020-05-25T17:54:59Z</time>
      </trkpt>
      <trkpt lat="43.56587" lon="1.13669">
        <ele>243</ele>
        <time>2020-05-25T17:55:07Z</time>
      </trkpt>
      <trkpt lat="43.56594" lon="1.13677">
        <ele>243</ele>
        <time>2020-05-25T17:55:14Z</time>
      </trkpt>
      <trkpt lat="43.56602" lon="1.13685">
        <ele>240</ele>
        <time>2020-05-25T17:55:22Z</time>
      </trkpt>
      <trkpt lat="43.5661" lon="1.1369">
        <ele>237</ele>
        <time>2020-05-25T17:55:30Z</time>
      </trkpt>
      <trkpt lat="43.56619" lon="1.13694">
        <ele>237</ele>
        <time>2020-05-25T17:55:37Z</time>
      </trkpt>
      <trkpt lat="43.56628" lon="1.13702">
        <ele>237</ele>
        <time>2020-05-25T17:55:45Z</time>
      </trkpt>
      <trkpt lat="43.56637" lon="1.13708">
        <ele>234</ele>
        <time>2020-05-25T17:55:54Z</time>
      </trkpt>
      <trkpt lat="43.56645" lon="1.13716">
        <ele>231</ele>
        <time>2020-05-25T17:56:02Z</time>
      </trkpt>
      <trkpt lat="43.56654" lon="1.13723">
        <ele>230</ele>
        <time>2020-05-25T17:56:11Z</time>
      </trkpt>
      <trkpt lat="43.56663" lon="1.13729">
        <ele>228</ele>
        <time>2020-05-25T17:56:19Z</time>
      </trkpt>
      <trkpt lat="43.56672" lon="1.13735">
        <ele>228</ele>
        <time>2020-05-25T17:56:26Z</time>
      </trkpt>
      <trkpt lat="43.5668" lon="1.1374">
        <ele>228</ele>
        <time>2020-05-25T17:56:34Z</time>
      </trkpt>
      <trkpt lat="43.56688" lon="1.13747">
        <ele>229</ele>
        <time>2020-05-25T17:56:41Z</time>
      </trkpt>
      <trkpt lat="43.56697" lon="1.13752">
        <ele>229</ele>
        <time>2020-05-25T17:56:49Z</time>
      </trkpt>
      <trkpt lat="43.56705" lon="1.13759">
        <ele>229</ele>
        <time>2020-05-25T17:56:57Z</time>
      </trkpt>
      <trkpt lat="43.56714" lon="1.13761">
        <ele>229</ele>
        <time>2020-05-25T17:57:04Z</time>
      </trkpt>
      <trkpt lat="43.56723" lon="1.13767">
        <ele>229</ele>
        <time>2020-05-25T17:57:11Z</time>
      </trkpt>
      <trkpt lat="43.56731" lon="1.13773">
        <ele>230</ele>
        <time>2020-05-25T17:57:19Z</time>
      </trkpt>
      <trkpt lat="43.5674" lon="1.13779">
        <ele>231</ele>
        <time>2020-05-25T17:57:27Z</time>
      </trkpt>
      <trkpt lat="43.56748" lon="1.13785">
        <ele>230</ele>
        <time>2020-05-25T17:57:35Z</time>
      </trkpt>
      <trkpt lat="43.56757" lon="1.13789">
        <ele>229</ele>
        <time>2020-05-25T17:57:42Z</time>
      </trkpt>
      <trkpt lat="43.56765" lon="1.13796">
        <ele>229</ele>
        <time>2020-05-25T17:57:50Z</time>
      </trkpt>
      <trkpt lat="43.56773" lon="1.13804">
        <ele>229</ele>
        <time>2020-05-25T17:57:57Z</time>
      </trkpt>
      <trkpt lat="43.56781" lon="1.1381">
        <ele>228</ele>
        <time>2020-05-25T17:58:05Z</time>
      </trkpt>
      <trkpt lat="43.5679" lon="1.13815">
        <ele>228</ele>
        <time>2020-05-25T17:58:13Z</time>
      </trkpt>
      <trkpt lat="43.56799" lon="1.13822">
        <ele>228</ele>
        <time>2020-05-25T17:58:21Z</time>
      </trkpt>
      <trkpt lat="43.56808" lon="1.13828">
        <ele>228</ele>
        <time>2020-05-25T17:58:29Z</time>
      </trkpt>
      <trkpt lat="43.56816" lon="1.13834">
        <ele>229</ele>
        <time>2020-05-25T17:58:36Z</time>
      </trkpt>
      <trkpt lat="43.56824" lon="1.1384">
        <ele>229</ele>
        <time>2020-05-25T17:58:44Z</time>
      </trkpt>
      <trkpt lat="43.56833" lon="1.13845">
        <ele>229</ele>
        <time>2020-05-25T17:58:51Z</time>
      </trkpt>
      <trkpt lat="43.56841" lon="1.1385">
        <ele>231</ele>
        <time>2020-05-25T17:58:59Z</time>
      </trkpt>
      <trkpt lat="43.56851" lon="1.13856">
        <ele>231</ele>
        <time>2020-05-25T17:59:07Z</time>
      </trkpt>
      <trkpt lat="43.56859" lon="1.13863">
        <ele>231</ele>
        <time>2020-05-25T17:59:15Z</time>
      </trkpt>
      <trkpt lat="43.56868" lon="1.13868">
        <ele>231</ele>
        <time>2020-05-25T17:59:23Z</time>
      </trkpt>
      <trkpt lat="43.56877" lon="1.13876">
        <ele>231</ele>
        <time>2020-05-25T17:59:31Z</time>
      </trkpt>
      <trkpt lat="43.56886" lon="1.13881">
        <ele>232</ele>
        <time>2020-05-25T17:59:39Z</time>
      </trkpt>
      <trkpt lat="43.56894" lon="1.13887">
        <ele>232</ele>
        <time>2020-05-25T17:59:46Z</time>
      </trkpt>
      <trkpt lat="43.56903" lon="1.13893">
        <ele>231</ele>
        <time>2020-05-25T17:59:54Z</time>
      </trkpt>
      <trkpt lat="43.56913" lon="1.13898">
        <ele>230</ele>
        <time>2020-05-25T18:00:03Z</time>
      </trkpt>
      <trkpt lat="43.56921" lon="1.13903">
        <ele>229</ele>
        <time>2020-05-25T18:00:10Z</time>
      </trkpt>
      <trkpt lat="43.56929" lon="1.13911">
        <ele>231</ele>
        <time>2020-05-25T18:00:18Z</time>
      </trkpt>
      <trkpt lat="43.56939" lon="1.13915">
        <ele>233</ele>
        <time>2020-05-25T18:00:26Z</time>
      </trkpt>
      <trkpt lat="43.56947" lon="1.13923">
        <ele>235</ele>
        <time>2020-05-25T18:00:34Z</time>
      </trkpt>
      <trkpt lat="43.56956" lon="1.13928">
        <ele>237</ele>
        <time>2020-05-25T18:00:42Z</time>
      </trkpt>
      <trkpt lat="43.56964" lon="1.13936">
        <ele>239</ele>
        <time>2020-05-25T18:00:50Z</time>
      </trkpt>
      <trkpt lat="43.56973" lon="1.1394">
        <ele>241</ele>
        <time>2020-05-25T18:00:58Z</time>
      </trkpt>
      <trkpt lat="43.56982" lon="1.13948">
        <ele>244</ele>
        <time>2020-05-25T18:01:07Z</time>
      </trkpt>
      <trkpt lat="43.5699" lon="1.13954">
        <ele>245</ele>
        <time>2020-05-25T18:01:14Z</time>
      </trkpt>
      <trkpt lat="43.56999" lon="1.13959">
        <ele>245</ele>
        <time>2020-05-25T18:01:22Z</time>
      </trkpt>
      <trkpt lat="43.57007" lon="1.13967">
        <ele>246</ele>
        <time>2020-05-25T18:01:29Z</time>
      </trkpt>
      <trkpt lat="43.57016" lon="1.13971">
        <ele>247</ele>
        <time>2020-05-25T18:01:37Z</time>
      </trkpt>
      <trkpt lat="43.57025" lon="1.13972">
        <ele>248</ele>
        <time>2020-05-25T18:01:45Z</time>
      </trkpt>
      <trkpt lat="43.57033" lon="1.13979">
        <ele>249</ele>
        <time>2020-05-25T18:01:53Z</time>
      </trkpt>
      <trkpt lat="43.57042" lon="1.13984">
        <ele>250</ele>
        <time>2020-05-25T18:02:00Z</time>
      </trkpt>
      <trkpt lat="43.57052" lon="1.13987">
        <ele>252</ele>
        <time>2020-05-25T18:02:08Z</time>
      </trkpt>
      <trkpt lat="43.57061" lon="1.13993">
        <ele>253</ele>
        <time>2020-05-25T18:02:16Z</time>
      </trkpt>
      <trkpt lat="43.5707" lon="1.13999">
        <ele>253</ele>
        <time>2020-05-25T18:02:24Z</time>
      </trkpt>
      <trkpt lat="43.57078" lon="1.14004">
        <ele>254</ele>
        <time>2020-05-25T18:02:32Z</time>
      </trkpt>
      <trkpt lat="43.57087" lon="1.14011">
        <ele>254</ele>
        <time>2020-05-25T18:02:40Z</time>
      </trkpt>
      <trkpt lat="43.57096" lon="1.14013">
        <ele>255</ele>
        <time>2020-05-25T18:02:47Z</time>
      </trkpt>
      <trkpt lat="43.57106" lon="1.14014">
        <ele>257</ele>
        <time>2020-05-25T18:02:55Z</time>
      </trkpt>
      <trkpt lat="43.57114" lon="1.14021">
        <ele>258</ele>
        <time>2020-05-25T18:03:03Z</time>
      </trkpt>
      <trkpt lat="43.57122" lon="1.14028">
        <ele>258</ele>
        <time>2020-05-25T18:03:10Z</time>
      </trkpt>
      <trkpt lat="43.57129" lon="1.14035">
        <ele>260</ele>
        <time>2020-05-25T18:03:17Z</time>
      </trkpt>
      <trkpt lat="43.57138" lon="1.14038">
        <ele>259</ele>
        <time>2020-05-25T18:03:25Z</time>
      </trkpt>
      <trkpt lat="43.57147" lon="1.14043">
        <ele>260</ele>
        <time>2020-05-25T18:03:32Z</time>
      </trkpt>
      <trkpt lat="43.57155" lon="1.14047">
        <ele>261</ele>
        <time>2020-05-25T18:03:40Z</time>
      </trkpt>
      <trkpt lat="43.57164" lon="1.14053">
        <ele>263</ele>
        <time>2020-05-25T18:03:47Z</time>
      </trkpt>
      <trkpt lat="43.57171" lon="1.14061">
        <ele>264</ele>
        <time>2020-05-25T18:03:55Z</time>
      </trkpt>
      <trkpt lat="43.5718" lon="1.14061">
        <ele>266</ele>
        <time>2020-05-25T18:04:03Z</time>
      </trkpt>
      <trkpt lat="43.5719" lon="1.14062">
        <ele>268</ele>
        <time>2020-05-25T18:04:10Z</time>
      </trkpt>
      <trkpt lat="43.57198" lon="1.1407">
        <ele>271</ele>
        <time>2020-05-25T18:04:19Z</time>
      </trkpt>
      <trkpt lat="43.57206" lon="1.14077">
        <ele>274</ele>
        <time>2020-05-25T18:04:27Z</time>
      </trkpt>
      <trkpt lat="43.57215" lon="1.14084">
        <ele>275</ele>
        <time>2020-05-25T18:04:35Z</time>
      </trkpt>
      <trkpt lat="43.57223" lon="1.14089">
        <ele>277</ele>
        <time>2020-05-25T18:04:42Z</time>
      </trkpt>
      <trkpt lat="43.57231" lon="1.14097">
        <ele>278</ele>
        <time>2020-05-25T18:04:50Z</time>
      </trkpt>
      <trkpt lat="43.5724" lon="1.14103">
        <ele>274</ele>
        <time>2020-05-25T18:04:58Z</time>
      </trkpt>
      <trkpt lat="43.57248" lon="1.14107">
        <ele>274</ele>
        <time>2020-05-25T18:05:06Z</time>
      </trkpt>
      <trkpt lat="43.57257" lon="1.14113">
        <ele>274</ele>
        <time>2020-05-25T18:05:13Z</time>
      </trkpt>
      <trkpt lat="43.57264" lon="1.14123">
        <ele>275</ele>
        <time>2020-05-25T18:05:21Z</time>
      </trkpt>
      <trkpt lat="43.57273" lon="1.14128">
        <ele>273</ele>
        <time>2020-05-25T18:05:29Z</time>
      </trkpt>
      <trkpt lat="43.57274" lon="1.14141">
        <ele>271</ele>
        <time>2020-05-25T18:05:37Z</time>
      </trkpt>
      <trkpt lat="43.57282" lon="1.14151">
        <ele>269</ele>
        <time>2020-05-25T18:05:45Z</time>
      </trkpt>
      <trkpt lat="43.57289" lon="1.14158">
        <ele>268</ele>
        <time>2020-05-25T18:05:53Z</time>
      </trkpt>
      <trkpt lat="43.57298" lon="1.14166">
        <ele>266</ele>
        <time>2020-05-25T18:06:01Z</time>
      </trkpt>
      <trkpt lat="43.57304" lon="1.14175">
        <ele>264</ele>
        <time>2020-05-25T18:06:09Z</time>
      </trkpt>
      <trkpt lat="43.57313" lon="1.14184">
        <ele>263</ele>
        <time>2020-05-25T18:06:17Z</time>
      </trkpt>
      <trkpt lat="43.57322" lon="1.14189">
        <ele>262</ele>
        <time>2020-05-25T18:06:25Z</time>
      </trkpt>
      <trkpt lat="43.57331" lon="1.14194">
        <ele>262</ele>
        <time>2020-05-25T18:06:33Z</time>
      </trkpt>
      <trkpt lat="43.57338" lon="1.14202">
        <ele>261</ele>
        <time>2020-05-25T18:06:40Z</time>
      </trkpt>
      <trkpt lat="43.57345" lon="1.14211">
        <ele>261</ele>
        <time>2020-05-25T18:06:48Z</time>
      </trkpt>
      <trkpt lat="43.57351" lon="1.14222">
        <ele>258</ele>
        <time>2020-05-25T18:06:56Z</time>
      </trkpt>
      <trkpt lat="43.57354" lon="1.14234">
        <ele>256</ele>
        <time>2020-05-25T18:07:04Z</time>
      </trkpt>
      <trkpt lat="43.57359" lon="1.14244">
        <ele>254</ele>
        <time>2020-05-25T18:07:11Z</time>
      </trkpt>
      <trkpt lat="43.57363" lon="1.14256">
        <ele>254</ele>
        <time>2020-05-25T18:07:19Z</time>
      </trkpt>
      <trkpt lat="43.57365" lon="1.14269">
        <ele>255</ele>
        <time>2020-05-25T18:07:26Z</time>
      </trkpt>
      <trkpt lat="43.57367" lon="1.14284">
        <ele>256</ele>
        <time>2020-05-25T18:07:35Z</time>
      </trkpt>
      <trkpt lat="43.57371" lon="1.14296">
        <ele>256</ele>
        <time>2020-05-25T18:07:43Z</time>
      </trkpt>
      <trkpt lat="43.57372" lon="1.14308">
        <ele>258</ele>
        <time>2020-05-25T18:07:50Z</time>
      </trkpt>
      <trkpt lat="43.57374" lon="1.14321">
        <ele>259</ele>
        <time>2020-05-25T18:07:58Z</time>
      </trkpt>
      <trkpt lat="43.57377" lon="1.14334">
        <ele>259</ele>
        <time>2020-05-25T18:08:06Z</time>
      </trkpt>
      <trkpt lat="43.57379" lon="1.14346">
        <ele>258</ele>
        <time>2020-05-25T18:08:13Z</time>
      </trkpt>
      <trkpt lat="43.5738" lon="1.1436">
        <ele>255</ele>
        <time>2020-05-25T18:08:21Z</time>
      </trkpt>
      <trkpt lat="43.57382" lon="1.14373">
        <ele>252</ele>
        <time>2020-05-25T18:08:29Z</time>
      </trkpt>
      <trkpt lat="43.57382" lon="1.14385">
        <ele>248</ele>
        <time>2020-05-25T18:08:37Z</time>
      </trkpt>
      <trkpt lat="43.57386" lon="1.14397">
        <ele>246</ele>
        <time>2020-05-25T18:08:45Z</time>
      </trkpt>
      <trkpt lat="43.57392" lon="1.14409">
        <ele>244</ele>
        <time>2020-05-25T18:08:53Z</time>
      </trkpt>
      <trkpt lat="43.57398" lon="1.14419">
        <ele>242</ele>
        <time>2020-05-25T18:09:01Z</time>
      </trkpt>
      <trkpt lat="43.57406" lon="1.14427">
        <ele>242</ele>
        <time>2020-05-25T18:09:09Z</time>
      </trkpt>
      <trkpt lat="43.57414" lon="1.14434">
        <ele>242</ele>
        <time>2020-05-25T18:09:16Z</time>
      </trkpt>
      <trkpt lat="43.57421" lon="1.14443">
        <ele>241</ele>
        <time>2020-05-25T18:09:24Z</time>
      </trkpt>
      <trkpt lat="43.57432" lon="1.14492">
        <ele>245.9</ele>
        <time>2020-05-25T18:09:54Z</time>
      </trkpt>
      <trkpt lat="43.57439" lon="1.14539">
        <ele>246.5</ele>
        <time>2020-05-25T18:10:22Z</time>
      </trkpt>
      <trkpt lat="43.57443" lon="1.14561">
        <ele>248.1</ele>
        <time>2020-05-25T18:10:35Z</time>
      </trkpt>
      <trkpt lat="43.57449" lon="1.14605">
        <ele>250.1</ele>
        <time>2020-05-25T18:11:01Z</time>
      </trkpt>
      <trkpt lat="43.57457" lon="1.14631">
        <ele>252</ele>
        <time>2020-05-25T18:11:17Z</time>
      </trkpt>
      <trkpt lat="43.57473" lon="1.1466">
        <ele>253.9</ele>
        <time>2020-05-25T18:11:38Z</time>
      </trkpt>
      <trkpt lat="43.57512" lon="1.14712">
        <ele>259.9</ele>
        <time>2020-05-25T18:12:22Z</time>
      </trkpt>
      <trkpt lat="43.57526" lon="1.1473">
        <ele>259</ele>
        <time>2020-05-25T18:12:37Z</time>
      </trkpt>
      <trkpt lat="43.5754" lon="1.14752">
        <ele>264.8</ele>
        <time>2020-05-25T18:12:54Z</time>
      </trkpt>
      <trkpt lat="43.57552" lon="1.14766">
        <ele>261</ele>
        <time>2020-05-25T18:13:07Z</time>
      </trkpt>
      <trkpt lat="43.57561" lon="1.14777">
        <ele>268.6</ele>
        <time>2020-05-25T18:13:16Z</time>
      </trkpt>
      <trkpt lat="43.57591" lon="1.14801">
        <ele>258</ele>
        <time>2020-05-25T18:13:44Z</time>
      </trkpt>
      <trkpt lat="43.57601" lon="1.14803">
        <ele>258</ele>
        <time>2020-05-25T18:13:52Z</time>
      </trkpt>
      <trkpt lat="43.5761" lon="1.14809">
        <ele>258</ele>
        <time>2020-05-25T18:14:00Z</time>
      </trkpt>
      <trkpt lat="43.57619" lon="1.14815">
        <ele>257</ele>
        <time>2020-05-25T18:14:08Z</time>
      </trkpt>
      <trkpt lat="43.57622" lon="1.14828">
        <ele>255</ele>
        <time>2020-05-25T18:14:16Z</time>
      </trkpt>
      <trkpt lat="43.57625" lon="1.1484">
        <ele>255</ele>
        <time>2020-05-25T18:14:24Z</time>
      </trkpt>
      <trkpt lat="43.57621" lon="1.14852">
        <ele>254</ele>
        <time>2020-05-25T18:14:31Z</time>
      </trkpt>
      <trkpt lat="43.57615" lon="1.14863">
        <ele>255</ele>
        <time>2020-05-25T18:14:39Z</time>
      </trkpt>
      <trkpt lat="43.57614" lon="1.14876">
        <ele>257</ele>
        <time>2020-05-25T18:14:47Z</time>
      </trkpt>
      <trkpt lat="43.57615" lon="1.14888">
        <ele>260</ele>
        <time>2020-05-25T18:14:55Z</time>
      </trkpt>
      <trkpt lat="43.5761" lon="1.149">
        <ele>265</ele>
        <time>2020-05-25T18:15:03Z</time>
      </trkpt>
      <trkpt lat="43.57607" lon="1.14913">
        <ele>267</ele>
        <time>2020-05-25T18:15:11Z</time>
      </trkpt>
      <trkpt lat="43.57605" lon="1.14925">
        <ele>270</ele>
        <time>2020-05-25T18:15:19Z</time>
      </trkpt>
      <trkpt lat="43.57604" lon="1.14939">
        <ele>272</ele>
        <time>2020-05-25T18:15:27Z</time>
      </trkpt>
      <trkpt lat="43.57604" lon="1.14953">
        <ele>275</ele>
        <time>2020-05-25T18:15:35Z</time>
      </trkpt>
      <trkpt lat="43.57605" lon="1.14966">
        <ele>277</ele>
        <time>2020-05-25T18:15:43Z</time>
      </trkpt>
      <trkpt lat="43.57605" lon="1.14979">
        <ele>278</ele>
        <time>2020-05-25T18:15:51Z</time>
      </trkpt>
      <trkpt lat="43.57612" lon="1.14991">
        <ele>278</ele>
        <time>2020-05-25T18:15:59Z</time>
      </trkpt>
      <trkpt lat="43.57616" lon="1.15003">
        <ele>280</ele>
        <time>2020-05-25T18:16:07Z</time>
      </trkpt>
      <trkpt lat="43.57617" lon="1.15016">
        <ele>281</ele>
        <time>2020-05-25T18:16:15Z</time>
      </trkpt>
      <trkpt lat="43.57621" lon="1.15028">
        <ele>281</ele>
        <time>2020-05-25T18:16:23Z</time>
      </trkpt>
      <trkpt lat="43.57627" lon="1.15038">
        <ele>281</ele>
        <time>2020-05-25T18:16:30Z</time>
      </trkpt>
      <trkpt lat="43.57636" lon="1.15043">
        <ele>281</ele>
        <time>2020-05-25T18:16:38Z</time>
      </trkpt>
      <trkpt lat="43.57644" lon="1.15033">
        <ele>280</ele>
        <time>2020-05-25T18:16:46Z</time>
      </trkpt>
      <trkpt lat="43.57651" lon="1.15025">
        <ele>278</ele>
        <time>2020-05-25T18:16:54Z</time>
      </trkpt>
      <trkpt lat="43.57657" lon="1.15016">
        <ele>278</ele>
        <time>2020-05-25T18:17:01Z</time>
      </trkpt>
      <trkpt lat="43.57663" lon="1.15005">
        <ele>279</ele>
        <time>2020-05-25T18:17:09Z</time>
      </trkpt>
      <trkpt lat="43.57672" lon="1.14999">
        <ele>279</ele>
        <time>2020-05-25T18:17:17Z</time>
      </trkpt>
      <trkpt lat="43.5768" lon="1.14993">
        <ele>279</ele>
        <time>2020-05-25T18:17:25Z</time>
      </trkpt>
      <trkpt lat="43.57689" lon="1.14985">
        <ele>279</ele>
        <time>2020-05-25T18:17:33Z</time>
      </trkpt>
      <trkpt lat="43.57695" lon="1.14975">
        <ele>280</ele>
        <time>2020-05-25T18:17:41Z</time>
      </trkpt>
      <trkpt lat="43.57699" lon="1.14964">
        <ele>280</ele>
        <time>2020-05-25T18:17:48Z</time>
      </trkpt>
      <trkpt lat="43.57708" lon="1.14958">
        <ele>280</ele>
        <time>2020-05-25T18:17:55Z</time>
      </trkpt>
      <trkpt lat="43.57714" lon="1.14948">
        <ele>281</ele>
        <time>2020-05-25T18:18:03Z</time>
      </trkpt>
      <trkpt lat="43.57721" lon="1.14937">
        <ele>282</ele>
        <time>2020-05-25T18:18:12Z</time>
      </trkpt>
      <trkpt lat="43.57728" lon="1.14929">
        <ele>283</ele>
        <time>2020-05-25T18:18:19Z</time>
      </trkpt>
      <trkpt lat="43.57735" lon="1.14919">
        <ele>282</ele>
        <time>2020-05-25T18:18:27Z</time>
      </trkpt>
      <trkpt lat="43.57742" lon="1.14911">
        <ele>282</ele>
        <time>2020-05-25T18:18:35Z</time>
      </trkpt>
      <trkpt lat="43.5775" lon="1.14903">
        <ele>281</ele>
        <time>2020-05-25T18:18:42Z</time>
      </trkpt>
      <trkpt lat="43.57757" lon="1.14894">
        <ele>280</ele>
        <time>2020-05-25T18:18:50Z</time>
      </trkpt>
      <trkpt lat="43.57766" lon="1.14888">
        <ele>280</ele>
        <time>2020-05-25T18:18:58Z</time>
      </trkpt>
      <trkpt lat="43.57775" lon="1.14884">
        <ele>280</ele>
        <time>2020-05-25T18:19:06Z</time>
      </trkpt>
      <trkpt lat="43.57785" lon="1.14881">
        <ele>279</ele>
        <time>2020-05-25T18:19:14Z</time>
      </trkpt>
      <trkpt lat="43.57794" lon="1.14878">
        <ele>279</ele>
        <time>2020-05-25T18:19:22Z</time>
      </trkpt>
      <trkpt lat="43.57804" lon="1.14878">
        <ele>279</ele>
        <time>2020-05-25T18:19:29Z</time>
      </trkpt>
      <trkpt lat="43.57813" lon="1.14874">
        <ele>279</ele>
        <time>2020-05-25T18:19:37Z</time>
      </trkpt>
      <trkpt lat="43.57822" lon="1.14872">
        <ele>280</ele>
        <time>2020-05-25T18:19:44Z</time>
      </trkpt>
      <trkpt lat="43.57831" lon="1.14869">
        <ele>282</ele>
        <time>2020-05-25T18:19:52Z</time>
      </trkpt>
      <trkpt lat="43.57841" lon="1.14869">
        <ele>284</ele>
        <time>2020-05-25T18:20:00Z</time>
      </trkpt>
      <trkpt lat="43.5785" lon="1.1487">
        <ele>285</ele>
        <time>2020-05-25T18:20:08Z</time>
      </trkpt>
      <trkpt lat="43.5786" lon="1.14869">
        <ele>286</ele>
        <time>2020-05-25T18:20:15Z</time>
      </trkpt>
      <trkpt lat="43.57869" lon="1.14866">
        <ele>286</ele>
        <time>2020-05-25T18:20:22Z</time>
      </trkpt>
      <trkpt lat="43.57879" lon="1.14863">
        <ele>287</ele>
        <time>2020-05-25T18:20:31Z</time>
      </trkpt>
      <trkpt lat="43.57888" lon="1.14866">
        <ele>289</ele>
        <time>2020-05-25T18:20:39Z</time>
      </trkpt>
      <trkpt lat="43.57898" lon="1.14866">
        <ele>290</ele>
        <time>2020-05-25T18:20:46Z</time>
      </trkpt>
      <trkpt lat="43.57908" lon="1.14865">
        <ele>291</ele>
        <time>2020-05-25T18:20:54Z</time>
      </trkpt>
      <trkpt lat="43.57917" lon="1.14866">
        <ele>292</ele>
        <time>2020-05-25T18:21:02Z</time>
      </trkpt>
      <trkpt lat="43.57927" lon="1.14867">
        <ele>293</ele>
        <time>2020-05-25T18:21:10Z</time>
      </trkpt>
      <trkpt lat="43.57936" lon="1.14872">
        <ele>294</ele>
        <time>2020-05-25T18:21:17Z</time>
      </trkpt>
      <trkpt lat="43.57945" lon="1.14875">
        <ele>295</ele>
        <time>2020-05-25T18:21:25Z</time>
      </trkpt>
      <trkpt lat="43.57952" lon="1.14884">
        <ele>296</ele>
        <time>2020-05-25T18:21:33Z</time>
      </trkpt>
      <trkpt lat="43.57957" lon="1.14894">
        <ele>297</ele>
        <time>2020-05-25T18:21:40Z</time>
      </trkpt>
      <trkpt lat="43.57961" lon="1.14906">
        <ele>296</ele>
        <time>2020-05-25T18:21:48Z</time>
      </trkpt>
      <trkpt lat="43.57966" lon="1.14918">
        <ele>297</ele>
        <time>2020-05-25T18:21:56Z</time>
      </trkpt>
      <trkpt lat="43.5797" lon="1.14929">
        <ele>297</ele>
        <time>2020-05-25T18:22:03Z</time>
      </trkpt>
      <trkpt lat="43.57976" lon="1.14938">
        <ele>297</ele>
        <time>2020-05-25T18:22:10Z</time>
      </trkpt>
      <trkpt lat="43.5798" lon="1.14951">
        <ele>298</ele>
        <time>2020-05-25T18:22:18Z</time>
      </trkpt>
      <trkpt lat="43.57988" lon="1.14961">
        <ele>298</ele>
        <time>2020-05-25T18:22:27Z</time>
      </trkpt>
      <trkpt lat="43.57995" lon="1.1497">
        <ele>299</ele>
        <time>2020-05-25T18:22:35Z</time>
      </trkpt>
      <trkpt lat="43.57998" lon="1.14983">
        <ele>298</ele>
        <time>2020-05-25T18:22:43Z</time>
      </trkpt>
      <trkpt lat="43.57997" lon="1.14995">
        <ele>298</ele>
        <time>2020-05-25T18:22:50Z</time>
      </trkpt>
      <trkpt lat="43.57994" lon="1.15008">
        <ele>296</ele>
        <time>2020-05-25T18:22:57Z</time>
      </trkpt>
      <trkpt lat="43.57994" lon="1.15021">
        <ele>295</ele>
        <time>2020-05-25T18:23:05Z</time>
      </trkpt>
      <trkpt lat="43.57995" lon="1.15033">
        <ele>295</ele>
        <time>2020-05-25T18:23:12Z</time>
      </trkpt>
      <trkpt lat="43.57994" lon="1.15047">
        <ele>295</ele>
        <time>2020-05-25T18:23:20Z</time>
      </trkpt>
      <trkpt lat="43.57993" lon="1.15061">
        <ele>293</ele>
        <time>2020-05-25T18:23:29Z</time>
      </trkpt>
      <trkpt lat="43.57994" lon="1.15074">
        <ele>291</ele>
        <time>2020-05-25T18:23:36Z</time>
      </trkpt>
      <trkpt lat="43.57992" lon="1.15087">
        <ele>289</ele>
        <time>2020-05-25T18:23:45Z</time>
      </trkpt>
      <trkpt lat="43.5799" lon="1.15101">
        <ele>286</ele>
        <time>2020-05-25T18:23:53Z</time>
      </trkpt>
      <trkpt lat="43.57987" lon="1.15113">
        <ele>284</ele>
        <time>2020-05-25T18:24:01Z</time>
      </trkpt>
      <trkpt lat="43.57984" lon="1.15126">
        <ele>283</ele>
        <time>2020-05-25T18:24:08Z</time>
      </trkpt>
      <trkpt lat="43.57983" lon="1.1514">
        <ele>282</ele>
        <time>2020-05-25T18:24:17Z</time>
      </trkpt>
      <trkpt lat="43.57981" lon="1.15154">
        <ele>280</ele>
        <time>2020-05-25T18:24:25Z</time>
      </trkpt>
      <trkpt lat="43.57981" lon="1.15167">
        <ele>279</ele>
        <time>2020-05-25T18:24:33Z</time>
      </trkpt>
      <trkpt lat="43.57979" lon="1.15181">
        <ele>278</ele>
        <time>2020-05-25T18:24:41Z</time>
      </trkpt>
      <trkpt lat="43.57976" lon="1.15194">
        <ele>277</ele>
        <time>2020-05-25T18:24:49Z</time>
      </trkpt>
      <trkpt lat="43.57974" lon="1.15207">
        <ele>279</ele>
        <time>2020-05-25T18:24:57Z</time>
      </trkpt>
      <trkpt lat="43.57973" lon="1.15221">
        <ele>280</ele>
        <time>2020-05-25T18:25:05Z</time>
      </trkpt>
      <trkpt lat="43.57971" lon="1.15235">
        <ele>280</ele>
        <time>2020-05-25T18:25:13Z</time>
      </trkpt>
      <trkpt lat="43.5797" lon="1.15249">
        <ele>280</ele>
        <time>2020-05-25T18:25:22Z</time>
      </trkpt>
      <trkpt lat="43.57966" lon="1.15262">
        <ele>282</ele>
        <time>2020-05-25T18:25:30Z</time>
      </trkpt>
      <trkpt lat="43.57966" lon="1.15275">
        <ele>284</ele>
        <time>2020-05-25T18:25:38Z</time>
      </trkpt>
      <trkpt lat="43.57964" lon="1.15288">
        <ele>286</ele>
        <time>2020-05-25T18:25:46Z</time>
      </trkpt>
      <trkpt lat="43.57961" lon="1.153">
        <ele>288</ele>
        <time>2020-05-25T18:25:53Z</time>
      </trkpt>
      <trkpt lat="43.57955" lon="1.15312">
        <ele>288</ele>
        <time>2020-05-25T18:26:01Z</time>
      </trkpt>
      <trkpt lat="43.57948" lon="1.15321">
        <ele>287</ele>
        <time>2020-05-25T18:26:09Z</time>
      </trkpt>
      <trkpt lat="43.5794" lon="1.15331">
        <ele>286</ele>
        <time>2020-05-25T18:26:18Z</time>
      </trkpt>
      <trkpt lat="43.57934" lon="1.15341">
        <ele>285</ele>
        <time>2020-05-25T18:26:26Z</time>
      </trkpt>
      <trkpt lat="43.57929" lon="1.15351">
        <ele>284</ele>
        <time>2020-05-25T18:26:33Z</time>
      </trkpt>
      <trkpt lat="43.57923" lon="1.15362">
        <ele>283</ele>
        <time>2020-05-25T18:26:41Z</time>
      </trkpt>
      <trkpt lat="43.57917" lon="1.15374">
        <ele>282</ele>
        <time>2020-05-25T18:26:49Z</time>
      </trkpt>
      <trkpt lat="43.57912" lon="1.15385">
        <ele>280</ele>
        <time>2020-05-25T18:26:57Z</time>
      </trkpt>
      <trkpt lat="43.57905" lon="1.15394">
        <ele>278</ele>
        <time>2020-05-25T18:27:05Z</time>
      </trkpt>
      <trkpt lat="43.57898" lon="1.15403">
        <ele>276</ele>
        <time>2020-05-25T18:27:13Z</time>
      </trkpt>
      <trkpt lat="43.57891" lon="1.15414">
        <ele>276</ele>
        <time>2020-05-25T18:27:21Z</time>
      </trkpt>
      <trkpt lat="43.57884" lon="1.15423">
        <ele>275</ele>
        <time>2020-05-25T18:27:28Z</time>
      </trkpt>
      <trkpt lat="43.57876" lon="1.15431">
        <ele>275</ele>
        <time>2020-05-25T18:27:37Z</time>
      </trkpt>
      <trkpt lat="43.57869" lon="1.1544">
        <ele>276</ele>
        <time>2020-05-25T18:27:44Z</time>
      </trkpt>
      <trkpt lat="43.57862" lon="1.15448">
        <ele>277</ele>
        <time>2020-05-25T18:27:52Z</time>
      </trkpt>
      <trkpt lat="43.57854" lon="1.15457">
        <ele>279</ele>
        <time>2020-05-25T18:28:00Z</time>
      </trkpt>
      <trkpt lat="43.57846" lon="1.15464">
        <ele>279</ele>
        <time>2020-05-25T18:28:08Z</time>
      </trkpt>
      <trkpt lat="43.57839" lon="1.15472">
        <ele>279</ele>
        <time>2020-05-25T18:28:15Z</time>
      </trkpt>
      <trkpt lat="43.57831" lon="1.1548">
        <ele>279</ele>
        <time>2020-05-25T18:28:23Z</time>
      </trkpt>
      <trkpt lat="43.57824" lon="1.15489">
        <ele>280</ele>
        <time>2020-05-25T18:28:31Z</time>
      </trkpt>
      <trkpt lat="43.57816" lon="1.15498">
        <ele>280</ele>
        <time>2020-05-25T18:28:39Z</time>
      </trkpt>
      <trkpt lat="43.57808" lon="1.15506">
        <ele>278</ele>
        <time>2020-05-25T18:28:47Z</time>
      </trkpt>
      <trkpt lat="43.57801" lon="1.15516">
        <ele>277</ele>
        <time>2020-05-25T18:28:55Z</time>
      </trkpt>
      <trkpt lat="43.57795" lon="1.15526">
        <ele>277</ele>
        <time>2020-05-25T18:29:02Z</time>
      </trkpt>
      <trkpt lat="43.57787" lon="1.15532">
        <ele>278</ele>
        <time>2020-05-25T18:29:10Z</time>
      </trkpt>
      <trkpt lat="43.57779" lon="1.1554">
        <ele>278</ele>
        <time>2020-05-25T18:29:18Z</time>
      </trkpt>
      <trkpt lat="43.57771" lon="1.15546">
        <ele>279</ele>
        <time>2020-05-25T18:29:25Z</time>
      </trkpt>
      <trkpt lat="43.57764" lon="1.15556">
        <ele>280</ele>
        <time>2020-05-25T18:29:33Z</time>
      </trkpt>
      <trkpt lat="43.57758" lon="1.15567">
        <ele>281</ele>
        <time>2020-05-25T18:29:41Z</time>
      </trkpt>
      <trkpt lat="43.57751" lon="1.15576">
        <ele>282</ele>
        <time>2020-05-25T18:29:49Z</time>
      </trkpt>
      <trkpt lat="43.57744" lon="1.15584">
        <ele>284</ele>
        <time>2020-05-25T18:29:56Z</time>
      </trkpt>
      <trkpt lat="43.57736" lon="1.15594">
        <ele>285</ele>
        <time>2020-05-25T18:30:05Z</time>
      </trkpt>
      <trkpt lat="43.57728" lon="1.15603">
        <ele>285</ele>
        <time>2020-05-25T18:30:13Z</time>
      </trkpt>
      <trkpt lat="43.5772" lon="1.1561">
        <ele>285</ele>
        <time>2020-05-25T18:30:21Z</time>
      </trkpt>
      <trkpt lat="43.57714" lon="1.1562">
        <ele>284</ele>
        <time>2020-05-25T18:30:29Z</time>
      </trkpt>
      <trkpt lat="43.57708" lon="1.15631">
        <ele>283</ele>
        <time>2020-05-25T18:30:36Z</time>
      </trkpt>
      <trkpt lat="43.57702" lon="1.1564">
        <ele>283</ele>
        <time>2020-05-25T18:30:44Z</time>
      </trkpt>
      <trkpt lat="43.57694" lon="1.1565">
        <ele>283</ele>
        <time>2020-05-25T18:30:52Z</time>
      </trkpt>
      <trkpt lat="43.57687" lon="1.15658">
        <ele>282</ele>
        <time>2020-05-25T18:30:59Z</time>
      </trkpt>
      <trkpt lat="43.5768" lon="1.15668">
        <ele>282</ele>
        <time>2020-05-25T18:31:07Z</time>
      </trkpt>
      <trkpt lat="43.57674" lon="1.15679">
        <ele>284</ele>
        <time>2020-05-25T18:31:16Z</time>
      </trkpt>
      <trkpt lat="43.57669" lon="1.15691">
        <ele>285</ele>
        <time>2020-05-25T18:31:24Z</time>
      </trkpt>
      <trkpt lat="43.57661" lon="1.15701">
        <ele>285</ele>
        <time>2020-05-25T18:31:32Z</time>
      </trkpt>
      <trkpt lat="43.57653" lon="1.15708">
        <ele>286</ele>
        <time>2020-05-25T18:31:40Z</time>
      </trkpt>
      <trkpt lat="43.57646" lon="1.15717">
        <ele>286</ele>
        <time>2020-05-25T18:31:47Z</time>
      </trkpt>
      <trkpt lat="43.57639" lon="1.15727">
        <ele>285</ele>
        <time>2020-05-25T18:31:55Z</time>
      </trkpt>
      <trkpt lat="43.57632" lon="1.15735">
        <ele>284</ele>
        <time>2020-05-25T18:32:03Z</time>
      </trkpt>
      <trkpt lat="43.57625" lon="1.15745">
        <ele>282</ele>
        <time>2020-05-25T18:32:11Z</time>
      </trkpt>
      <trkpt lat="43.57619" lon="1.15755">
        <ele>281</ele>
        <time>2020-05-25T18:32:19Z</time>
      </trkpt>
      <trkpt lat="43.57614" lon="1.15765">
        <ele>280</ele>
        <time>2020-05-25T18:32:26Z</time>
      </trkpt>
      <trkpt lat="43.57605" lon="1.15774">
        <ele>279</ele>
        <time>2020-05-25T18:32:34Z</time>
      </trkpt>
      <trkpt lat="43.57598" lon="1.15785">
        <ele>279</ele>
        <time>2020-05-25T18:32:43Z</time>
      </trkpt>
      <trkpt lat="43.57591" lon="1.15794">
        <ele>280</ele>
        <time>2020-05-25T18:32:51Z</time>
      </trkpt>
      <trkpt lat="43.57582" lon="1.15801">
        <ele>281</ele>
        <time>2020-05-25T18:32:59Z</time>
      </trkpt>
      <trkpt lat="43.57575" lon="1.1581">
        <ele>280</ele>
        <time>2020-05-25T18:33:07Z</time>
      </trkpt>
      <trkpt lat="43.57568" lon="1.1582">
        <ele>277</ele>
        <time>2020-05-25T18:33:15Z</time>
      </trkpt>
      <trkpt lat="43.57562" lon="1.1583">
        <ele>277</ele>
        <time>2020-05-25T18:33:23Z</time>
      </trkpt>
      <trkpt lat="43.57557" lon="1.15842">
        <ele>278</ele>
        <time>2020-05-25T18:33:31Z</time>
      </trkpt>
      <trkpt lat="43.5755" lon="1.15852">
        <ele>279</ele>
        <time>2020-05-25T18:33:39Z</time>
      </trkpt>
      <trkpt lat="43.57544" lon="1.15863">
        <ele>278</ele>
        <time>2020-05-25T18:33:47Z</time>
      </trkpt>
      <trkpt lat="43.57541" lon="1.15875">
        <ele>278</ele>
        <time>2020-05-25T18:33:54Z</time>
      </trkpt>
      <trkpt lat="43.57537" lon="1.15887">
        <ele>276</ele>
        <time>2020-05-25T18:34:02Z</time>
      </trkpt>
      <trkpt lat="43.57534" lon="1.15899">
        <ele>275</ele>
        <time>2020-05-25T18:34:10Z</time>
      </trkpt>
      <trkpt lat="43.5753" lon="1.1591">
        <ele>274</ele>
        <time>2020-05-25T18:34:17Z</time>
      </trkpt>
      <trkpt lat="43.57525" lon="1.15922">
        <ele>274</ele>
        <time>2020-05-25T18:34:25Z</time>
      </trkpt>
      <trkpt lat="43.5752" lon="1.15933">
        <ele>274</ele>
        <time>2020-05-25T18:34:33Z</time>
      </trkpt>
      <trkpt lat="43.57516" lon="1.15946">
        <ele>273</ele>
        <time>2020-05-25T18:34:41Z</time>
      </trkpt>
      <trkpt lat="43.57512" lon="1.15961">
        <ele>272</ele>
        <time>2020-05-25T18:34:50Z</time>
      </trkpt>
      <trkpt lat="43.57506" lon="1.15978">
        <ele>272</ele>
        <time>2020-05-25T18:35:01Z</time>
      </trkpt>
      <trkpt lat="43.57499" lon="1.15989">
        <ele>271</ele>
        <time>2020-05-25T18:35:09Z</time>
      </trkpt>
      <trkpt lat="43.57492" lon="1.15998">
        <ele>271</ele>
        <time>2020-05-25T18:35:17Z</time>
      </trkpt>
      <trkpt lat="43.57489" lon="1.16011">
        <ele>275</ele>
        <time>2020-05-25T18:35:25Z</time>
      </trkpt>
      <trkpt lat="43.57487" lon="1.16023">
        <ele>279</ele>
        <time>2020-05-25T18:35:33Z</time>
      </trkpt>
      <trkpt lat="43.57485" lon="1.16037">
        <ele>283</ele>
        <time>2020-05-25T18:35:42Z</time>
      </trkpt>
      <trkpt lat="43.57481" lon="1.16049">
        <ele>285</ele>
        <time>2020-05-25T18:35:50Z</time>
      </trkpt>
      <trkpt lat="43.57477" lon="1.16063">
        <ele>288</ele>
        <time>2020-05-25T18:35:59Z</time>
      </trkpt>
      <trkpt lat="43.57475" lon="1.16075">
        <ele>289</ele>
        <time>2020-05-25T18:36:06Z</time>
      </trkpt>
      <trkpt lat="43.57471" lon="1.16087">
        <ele>290</ele>
        <time>2020-05-25T18:36:14Z</time>
      </trkpt>
      <trkpt lat="43.57467" lon="1.16098">
        <ele>291</ele>
        <time>2020-05-25T18:36:21Z</time>
      </trkpt>
      <trkpt lat="43.5746" lon="1.16107">
        <ele>290</ele>
        <time>2020-05-25T18:36:29Z</time>
      </trkpt>
      <trkpt lat="43.57455" lon="1.16118">
        <ele>290</ele>
        <time>2020-05-25T18:36:36Z</time>
      </trkpt>
      <trkpt lat="43.57449" lon="1.16128">
        <ele>289</ele>
        <time>2020-05-25T18:36:44Z</time>
      </trkpt>
      <trkpt lat="43.57445" lon="1.1614">
        <ele>288</ele>
        <time>2020-05-25T18:36:51Z</time>
      </trkpt>
      <trkpt lat="43.57439" lon="1.16151">
        <ele>288</ele>
        <time>2020-05-25T18:36:59Z</time>
      </trkpt>
      <trkpt lat="43.57434" lon="1.16162">
        <ele>288</ele>
        <time>2020-05-25T18:37:07Z</time>
      </trkpt>
      <trkpt lat="43.57428" lon="1.16174">
        <ele>288</ele>
        <time>2020-05-25T18:37:15Z</time>
      </trkpt>
      <trkpt lat="43.57424" lon="1.16185">
        <ele>288</ele>
        <time>2020-05-25T18:37:22Z</time>
      </trkpt>
      <trkpt lat="43.57419" lon="1.16196">
        <ele>286</ele>
        <time>2020-05-25T18:37:30Z</time>
      </trkpt>
      <trkpt lat="43.57414" lon="1.16206">
        <ele>284</ele>
        <time>2020-05-25T18:37:38Z</time>
      </trkpt>
      <trkpt lat="43.57409" lon="1.16217">
        <ele>282</ele>
        <time>2020-05-25T18:37:45Z</time>
      </trkpt>
      <trkpt lat="43.57402" lon="1.16229">
        <ele>280</ele>
        <time>2020-05-25T18:37:55Z</time>
      </trkpt>
      <trkpt lat="43.57396" lon="1.16239">
        <ele>277</ele>
        <time>2020-05-25T18:38:02Z</time>
      </trkpt>
      <trkpt lat="43.57387" lon="1.16249">
        <ele>271</ele>
        <time>2020-05-25T18:38:12Z</time>
      </trkpt>
      <trkpt lat="43.57379" lon="1.1626">
        <ele>271</ele>
        <time>2020-05-25T18:38:21Z</time>
      </trkpt>
      <trkpt lat="43.57373" lon="1.1627">
        <ele>269</ele>
        <time>2020-05-25T18:38:29Z</time>
      </trkpt>
      <trkpt lat="43.57366" lon="1.16279">
        <ele>267</ele>
        <time>2020-05-25T18:38:37Z</time>
      </trkpt>
      <trkpt lat="43.5736" lon="1.16289">
        <ele>269</ele>
        <time>2020-05-25T18:38:45Z</time>
      </trkpt>
      <trkpt lat="43.57353" lon="1.16299">
        <ele>267</ele>
        <time>2020-05-25T18:38:53Z</time>
      </trkpt>
      <trkpt lat="43.57346" lon="1.16306">
        <ele>268</ele>
        <time>2020-05-25T18:39:00Z</time>
      </trkpt>
      <trkpt lat="43.57337" lon="1.16315">
        <ele>269</ele>
        <time>2020-05-25T18:39:09Z</time>
      </trkpt>
      <trkpt lat="43.5733" lon="1.16326">
        <ele>270</ele>
        <time>2020-05-25T18:39:17Z</time>
      </trkpt>
      <trkpt lat="43.57322" lon="1.16335">
        <ele>268</ele>
        <time>2020-05-25T18:39:26Z</time>
      </trkpt>
      <trkpt lat="43.57316" lon="1.16346">
        <ele>267</ele>
        <time>2020-05-25T18:39:33Z</time>
      </trkpt>
      <trkpt lat="43.57309" lon="1.16354">
        <ele>269</ele>
        <time>2020-05-25T18:39:41Z</time>
      </trkpt>
      <trkpt lat="43.57301" lon="1.16359">
        <ele>270</ele>
        <time>2020-05-25T18:39:48Z</time>
      </trkpt>
      <trkpt lat="43.57295" lon="1.1637">
        <ele>270</ele>
        <time>2020-05-25T18:39:56Z</time>
      </trkpt>
      <trkpt lat="43.57286" lon="1.16376">
        <ele>270</ele>
        <time>2020-05-25T18:40:04Z</time>
      </trkpt>
      <trkpt lat="43.57278" lon="1.16383">
        <ele>270</ele>
        <time>2020-05-25T18:40:12Z</time>
      </trkpt>
      <trkpt lat="43.57272" lon="1.16392">
        <ele>270</ele>
        <time>2020-05-25T18:40:19Z</time>
      </trkpt>
      <trkpt lat="43.57262" lon="1.16395">
        <ele>268</ele>
        <time>2020-05-25T18:40:27Z</time>
      </trkpt>
      <trkpt lat="43.57254" lon="1.16401">
        <ele>268</ele>
        <time>2020-05-25T18:40:35Z</time>
      </trkpt>
      <trkpt lat="43.57244" lon="1.16405">
        <ele>267</ele>
        <time>2020-05-25T18:40:43Z</time>
      </trkpt>
      <trkpt lat="43.57234" lon="1.16409">
        <ele>266</ele>
        <time>2020-05-25T18:40:51Z</time>
      </trkpt>
      <trkpt lat="43.57226" lon="1.16416">
        <ele>264</ele>
        <time>2020-05-25T18:40:59Z</time>
      </trkpt>
      <trkpt lat="43.57219" lon="1.16425">
        <ele>262</ele>
        <time>2020-05-25T18:41:07Z</time>
      </trkpt>
      <trkpt lat="43.5721" lon="1.16429">
        <ele>260</ele>
        <time>2020-05-25T18:41:15Z</time>
      </trkpt>
      <trkpt lat="43.57202" lon="1.16439">
        <ele>258</ele>
        <time>2020-05-25T18:41:23Z</time>
      </trkpt>
      <trkpt lat="43.57197" lon="1.16449">
        <ele>256</ele>
        <time>2020-05-25T18:41:30Z</time>
      </trkpt>
      <trkpt lat="43.57189" lon="1.16457">
        <ele>254</ele>
        <time>2020-05-25T18:41:38Z</time>
      </trkpt>
      <trkpt lat="43.57181" lon="1.16464">
        <ele>250</ele>
        <time>2020-05-25T18:41:46Z</time>
      </trkpt>
      <trkpt lat="43.57171" lon="1.16468">
        <ele>248</ele>
        <time>2020-05-25T18:41:54Z</time>
      </trkpt>
      <trkpt lat="43.57162" lon="1.16473">
        <ele>247</ele>
        <time>2020-05-25T18:42:02Z</time>
      </trkpt>
      <trkpt lat="43.57155" lon="1.16482">
        <ele>246</ele>
        <time>2020-05-25T18:42:11Z</time>
      </trkpt>
      <trkpt lat="43.57149" lon="1.16492">
        <ele>246</ele>
        <time>2020-05-25T18:42:18Z</time>
      </trkpt>
      <trkpt lat="43.5714" lon="1.16497">
        <ele>244</ele>
        <time>2020-05-25T18:42:26Z</time>
      </trkpt>
      <trkpt lat="43.57131" lon="1.16502">
        <ele>241</ele>
        <time>2020-05-25T18:42:34Z</time>
      </trkpt>
      <trkpt lat="43.57122" lon="1.16506">
        <ele>238</ele>
        <time>2020-05-25T18:42:42Z</time>
      </trkpt>
      <trkpt lat="43.57113" lon="1.16512">
        <ele>238</ele>
        <time>2020-05-25T18:42:50Z</time>
      </trkpt>
      <trkpt lat="43.57106" lon="1.1652">
        <ele>238</ele>
        <time>2020-05-25T18:42:57Z</time>
      </trkpt>
      <trkpt lat="43.57097" lon="1.16527">
        <ele>236</ele>
        <time>2020-05-25T18:43:06Z</time>
      </trkpt>
      <trkpt lat="43.57089" lon="1.16537">
        <ele>237</ele>
        <time>2020-05-25T18:43:14Z</time>
      </trkpt>
      <trkpt lat="43.57082" lon="1.16548">
        <ele>239</ele>
        <time>2020-05-25T18:43:23Z</time>
      </trkpt>
      <trkpt lat="43.57083" lon="1.16562">
        <ele>237</ele>
        <time>2020-05-25T18:43:31Z</time>
      </trkpt>
      <trkpt lat="43.57077" lon="1.16572">
        <ele>238</ele>
        <time>2020-05-25T18:43:39Z</time>
      </trkpt>
      <trkpt lat="43.57075" lon="1.16584">
        <ele>239</ele>
        <time>2020-05-25T18:43:46Z</time>
      </trkpt>
      <trkpt lat="43.57072" lon="1.16596">
        <ele>238</ele>
        <time>2020-05-25T18:43:53Z</time>
      </trkpt>
      <trkpt lat="43.57077" lon="1.16606">
        <ele>233</ele>
        <time>2020-05-25T18:44:01Z</time>
      </trkpt>
      <trkpt lat="43.5707" lon="1.16618">
        <ele>229</ele>
        <time>2020-05-25T18:44:11Z</time>
      </trkpt>
      <trkpt lat="43.57062" lon="1.16628">
        <ele>227</ele>
        <time>2020-05-25T18:44:19Z</time>
      </trkpt>
      <trkpt lat="43.57056" lon="1.16639">
        <ele>225</ele>
        <time>2020-05-25T18:44:28Z</time>
      </trkpt>
      <trkpt lat="43.57049" lon="1.16648">
        <ele>219</ele>
        <time>2020-05-25T18:44:36Z</time>
      </trkpt>
      <trkpt lat="43.57039" lon="1.16651">
        <ele>216</ele>
        <time>2020-05-25T18:44:45Z</time>
      </trkpt>
      <trkpt lat="43.57031" lon="1.16657">
        <ele>216</ele>
        <time>2020-05-25T18:44:52Z</time>
      </trkpt>
      <trkpt lat="43.57021" lon="1.1667">
        <ele>222</ele>
        <time>2020-05-25T18:45:04Z</time>
      </trkpt>
      <trkpt lat="43.57018" lon="1.16658">
        <ele>226</ele>
        <time>2020-05-25T18:45:12Z</time>
      </trkpt>
      <trkpt lat="43.57016" lon="1.16644">
        <ele>225</ele>
        <time>2020-05-25T18:45:21Z</time>
      </trkpt>
      <trkpt lat="43.56983" lon="1.16662">
        <ele>230</ele>
        <time>2020-05-25T18:45:49Z</time>
      </trkpt>
      <trkpt lat="43.56976" lon="1.16652">
        <ele>196</ele>
        <time>2020-05-25T18:46:15Z</time>
      </trkpt>
      <trkpt lat="43.56966" lon="1.16651">
        <ele>216</ele>
        <time>2020-05-25T18:46:31Z</time>
      </trkpt>
      <trkpt lat="43.56957" lon="1.16652">
        <ele>219</ele>
        <time>2020-05-25T18:46:39Z</time>
      </trkpt>
      <trkpt lat="43.56947" lon="1.16652">
        <ele>218</ele>
        <time>2020-05-25T18:46:48Z</time>
      </trkpt>
      <trkpt lat="43.56937" lon="1.16651">
        <ele>222</ele>
        <time>2020-05-25T18:46:56Z</time>
      </trkpt>
      <trkpt lat="43.56928" lon="1.16648">
        <ele>223</ele>
        <time>2020-05-25T18:47:03Z</time>
      </trkpt>
      <trkpt lat="43.56919" lon="1.16644">
        <ele>224</ele>
        <time>2020-05-25T18:47:11Z</time>
      </trkpt>
      <trkpt lat="43.56909" lon="1.16642">
        <ele>223</ele>
        <time>2020-05-25T18:47:19Z</time>
      </trkpt>
      <trkpt lat="43.569" lon="1.16648">
        <ele>223</ele>
        <time>2020-05-25T18:47:27Z</time>
      </trkpt>
      <trkpt lat="43.5689" lon="1.16646">
        <ele>224</ele>
        <time>2020-05-25T18:47:35Z</time>
      </trkpt>
      <trkpt lat="43.56881" lon="1.16645">
        <ele>224</ele>
        <time>2020-05-25T18:47:42Z</time>
      </trkpt>
      <trkpt lat="43.56872" lon="1.16646">
        <ele>223</ele>
        <time>2020-05-25T18:47:50Z</time>
      </trkpt>
      <trkpt lat="43.56862" lon="1.16647">
        <ele>221</ele>
        <time>2020-05-25T18:47:58Z</time>
      </trkpt>
      <trkpt lat="43.56853" lon="1.16643">
        <ele>219</ele>
        <time>2020-05-25T18:48:05Z</time>
      </trkpt>
      <trkpt lat="43.56843" lon="1.16643">
        <ele>218</ele>
        <time>2020-05-25T18:48:13Z</time>
      </trkpt>
      <trkpt lat="43.56834" lon="1.16645">
        <ele>216</ele>
        <time>2020-05-25T18:48:21Z</time>
      </trkpt>
      <trkpt lat="43.56825" lon="1.16647">
        <ele>215</ele>
        <time>2020-05-25T18:48:28Z</time>
      </trkpt>
      <trkpt lat="43.56816" lon="1.16648">
        <ele>215</ele>
        <time>2020-05-25T18:48:35Z</time>
      </trkpt>
      <trkpt lat="43.56808" lon="1.16642">
        <ele>215</ele>
        <time>2020-05-25T18:48:43Z</time>
      </trkpt>
      <trkpt lat="43.56798" lon="1.16647">
        <ele>214</ele>
        <time>2020-05-25T18:48:51Z</time>
      </trkpt>
      <trkpt lat="43.56789" lon="1.16648">
        <ele>213</ele>
        <time>2020-05-25T18:48:58Z</time>
      </trkpt>
      <trkpt lat="43.56779" lon="1.16649">
        <ele>211</ele>
        <time>2020-05-25T18:49:06Z</time>
      </trkpt>
      <trkpt lat="43.5677" lon="1.1665">
        <ele>209</ele>
        <time>2020-05-25T18:49:14Z</time>
      </trkpt>
      <trkpt lat="43.5676" lon="1.16648">
        <ele>209</ele>
        <time>2020-05-25T18:49:22Z</time>
      </trkpt>
      <trkpt lat="43.5675" lon="1.16649">
        <ele>209</ele>
        <time>2020-05-25T18:49:30Z</time>
      </trkpt>
      <trkpt lat="43.56741" lon="1.16648">
        <ele>210</ele>
        <time>2020-05-25T18:49:37Z</time>
      </trkpt>
      <trkpt lat="43.56732" lon="1.16644">
        <ele>210</ele>
        <time>2020-05-25T18:49:44Z</time>
      </trkpt>
      <trkpt lat="43.56727" lon="1.16634">
        <ele>211</ele>
        <time>2020-05-25T18:49:52Z</time>
      </trkpt>
      <trkpt lat="43.56718" lon="1.16628">
        <ele>211</ele>
        <time>2020-05-25T18:50:00Z</time>
      </trkpt>
      <trkpt lat="43.56708" lon="1.16624">
        <ele>211</ele>
        <time>2020-05-25T18:50:08Z</time>
      </trkpt>
      <trkpt lat="43.56699" lon="1.16621">
        <ele>210</ele>
        <time>2020-05-25T18:50:16Z</time>
      </trkpt>
      <trkpt lat="43.5669" lon="1.16628">
        <ele>210</ele>
        <time>2020-05-25T18:50:23Z</time>
      </trkpt>
      <trkpt lat="43.56681" lon="1.16631">
        <ele>209</ele>
        <time>2020-05-25T18:50:31Z</time>
      </trkpt>
      <trkpt lat="43.56672" lon="1.1663">
        <ele>209</ele>
        <time>2020-05-25T18:50:38Z</time>
      </trkpt>
      <trkpt lat="43.56663" lon="1.16625">
        <ele>209</ele>
        <time>2020-05-25T18:50:46Z</time>
      </trkpt>
      <trkpt lat="43.56654" lon="1.16624">
        <ele>209</ele>
        <time>2020-05-25T18:50:54Z</time>
      </trkpt>
      <trkpt lat="43.56644" lon="1.16621">
        <ele>208</ele>
        <time>2020-05-25T18:51:02Z</time>
      </trkpt>
      <trkpt lat="43.56634" lon="1.16622">
        <ele>208</ele>
        <time>2020-05-25T18:51:09Z</time>
      </trkpt>
      <trkpt lat="43.56625" lon="1.16618">
        <ele>208</ele>
        <time>2020-05-25T18:51:17Z</time>
      </trkpt>
      <trkpt lat="43.56616" lon="1.16614">
        <ele>207</ele>
        <time>2020-05-25T18:51:24Z</time>
      </trkpt>
      <trkpt lat="43.56607" lon="1.16613">
        <ele>205</ele>
        <time>2020-05-25T18:51:32Z</time>
      </trkpt>
      <trkpt lat="43.56598" lon="1.16609">
        <ele>205</ele>
        <time>2020-05-25T18:51:40Z</time>
      </trkpt>
      <trkpt lat="43.56588" lon="1.16609">
        <ele>204</ele>
        <time>2020-05-25T18:51:48Z</time>
      </trkpt>
      <trkpt lat="43.56579" lon="1.16605">
        <ele>204</ele>
        <time>2020-05-25T18:51:55Z</time>
      </trkpt>
      <trkpt lat="43.5657" lon="1.16603">
        <ele>203</ele>
        <time>2020-05-25T18:52:03Z</time>
      </trkpt>
      <trkpt lat="43.5656" lon="1.16601">
        <ele>203</ele>
        <time>2020-05-25T18:52:11Z</time>
      </trkpt>
      <trkpt lat="43.56551" lon="1.166">
        <ele>202</ele>
        <time>2020-05-25T18:52:18Z</time>
      </trkpt>
      <trkpt lat="43.56542" lon="1.16599">
        <ele>201</ele>
        <time>2020-05-25T18:52:26Z</time>
      </trkpt>
      <trkpt lat="43.56532" lon="1.16592">
        <ele>200</ele>
        <time>2020-05-25T18:52:34Z</time>
      </trkpt>
      <trkpt lat="43.56523" lon="1.16592">
        <ele>199</ele>
        <time>2020-05-25T18:52:42Z</time>
      </trkpt>
      <trkpt lat="43.56514" lon="1.16594">
        <ele>199</ele>
        <time>2020-05-25T18:52:49Z</time>
      </trkpt>
      <trkpt lat="43.56507" lon="1.16584">
        <ele>201</ele>
        <time>2020-05-25T18:52:57Z</time>
      </trkpt>
      <trkpt lat="43.56505" lon="1.16571">
        <ele>202</ele>
        <time>2020-05-25T18:53:04Z</time>
      </trkpt>
      <trkpt lat="43.56507" lon="1.16557">
        <ele>201</ele>
        <time>2020-05-25T18:53:13Z</time>
      </trkpt>
      <trkpt lat="43.56506" lon="1.16544">
        <ele>201</ele>
        <time>2020-05-25T18:53:21Z</time>
      </trkpt>
      <trkpt lat="43.56505" lon="1.16531">
        <ele>203</ele>
        <time>2020-05-25T18:53:28Z</time>
      </trkpt>
      <trkpt lat="43.56505" lon="1.16517">
        <ele>203</ele>
        <time>2020-05-25T18:53:37Z</time>
      </trkpt>
      <trkpt lat="43.56506" lon="1.16504">
        <ele>204</ele>
        <time>2020-05-25T18:53:44Z</time>
      </trkpt>
      <trkpt lat="43.56508" lon="1.1649">
        <ele>205</ele>
        <time>2020-05-25T18:53:52Z</time>
      </trkpt>
      <trkpt lat="43.56509" lon="1.16478">
        <ele>205</ele>
        <time>2020-05-25T18:54:00Z</time>
      </trkpt>
      <trkpt lat="43.56511" lon="1.16465">
        <ele>206</ele>
        <time>2020-05-25T18:54:07Z</time>
      </trkpt>
      <trkpt lat="43.56513" lon="1.16453">
        <ele>207</ele>
        <time>2020-05-25T18:54:15Z</time>
      </trkpt>
      <trkpt lat="43.56515" lon="1.1644">
        <ele>206</ele>
        <time>2020-05-25T18:54:23Z</time>
      </trkpt>
      <trkpt lat="43.56517" lon="1.16426">
        <ele>203</ele>
        <time>2020-05-25T18:54:31Z</time>
      </trkpt>
      <trkpt lat="43.56518" lon="1.16412">
        <ele>202</ele>
        <time>2020-05-25T18:54:39Z</time>
      </trkpt>
      <trkpt lat="43.5652" lon="1.16399">
        <ele>202</ele>
        <time>2020-05-25T18:54:47Z</time>
      </trkpt>
      <trkpt lat="43.56522" lon="1.16387">
        <ele>203</ele>
        <time>2020-05-25T18:54:54Z</time>
      </trkpt>
      <trkpt lat="43.56527" lon="1.16376">
        <ele>205</ele>
        <time>2020-05-25T18:55:02Z</time>
      </trkpt>
      <trkpt lat="43.56527" lon="1.16364">
        <ele>204</ele>
        <time>2020-05-25T18:55:09Z</time>
      </trkpt>
      <trkpt lat="43.56529" lon="1.16351">
        <ele>203</ele>
        <time>2020-05-25T18:55:17Z</time>
      </trkpt>
      <trkpt lat="43.5653" lon="1.16338">
        <ele>202</ele>
        <time>2020-05-25T18:55:25Z</time>
      </trkpt>
      <trkpt lat="43.56535" lon="1.16325">
        <ele>203</ele>
        <time>2020-05-25T18:55:33Z</time>
      </trkpt>
      <trkpt lat="43.56537" lon="1.16313">
        <ele>203</ele>
        <time>2020-05-25T18:55:40Z</time>
      </trkpt>
      <trkpt lat="43.56539" lon="1.163">
        <ele>205</ele>
        <time>2020-05-25T18:55:48Z</time>
      </trkpt>
      <trkpt lat="43.56541" lon="1.16286">
        <ele>205</ele>
        <time>2020-05-25T18:55:56Z</time>
      </trkpt>
      <trkpt lat="43.56543" lon="1.16274">
        <ele>205</ele>
        <time>2020-05-25T18:56:04Z</time>
      </trkpt>
      <trkpt lat="43.56545" lon="1.16261">
        <ele>204</ele>
        <time>2020-05-25T18:56:11Z</time>
      </trkpt>
      <trkpt lat="43.56548" lon="1.16247">
        <ele>204</ele>
        <time>2020-05-25T18:56:20Z</time>
      </trkpt>
      <trkpt lat="43.56551" lon="1.16234">
        <ele>204</ele>
        <time>2020-05-25T18:56:27Z</time>
      </trkpt>
      <trkpt lat="43.56552" lon="1.16222">
        <ele>205</ele>
        <time>2020-05-25T18:56:35Z</time>
      </trkpt>
      <trkpt lat="43.56556" lon="1.1621">
        <ele>206</ele>
        <time>2020-05-25T18:56:42Z</time>
      </trkpt>
      <trkpt lat="43.56556" lon="1.16196">
        <ele>207</ele>
        <time>2020-05-25T18:56:50Z</time>
      </trkpt>
      <trkpt lat="43.5655" lon="1.16185">
        <ele>207</ele>
        <time>2020-05-25T18:56:58Z</time>
      </trkpt>
      <trkpt lat="43.56541" lon="1.16179">
        <ele>207</ele>
        <time>2020-05-25T18:57:06Z</time>
      </trkpt>
      <trkpt lat="43.56531" lon="1.16179">
        <ele>207</ele>
        <time>2020-05-25T18:57:14Z</time>
      </trkpt>
      <trkpt lat="43.56523" lon="1.16175">
        <ele>206</ele>
        <time>2020-05-25T18:57:21Z</time>
      </trkpt>
      <trkpt lat="43.56514" lon="1.16171">
        <ele>206</ele>
        <time>2020-05-25T18:57:28Z</time>
      </trkpt>
      <trkpt lat="43.56505" lon="1.16166">
        <ele>205</ele>
        <time>2020-05-25T18:57:36Z</time>
      </trkpt>
      <trkpt lat="43.56495" lon="1.16162">
        <ele>204</ele>
        <time>2020-05-25T18:57:45Z</time>
      </trkpt>
      <trkpt lat="43.56486" lon="1.16158">
        <ele>203</ele>
        <time>2020-05-25T18:57:52Z</time>
      </trkpt>
      <trkpt lat="43.56477" lon="1.16152">
        <ele>202</ele>
        <time>2020-05-25T18:58:00Z</time>
      </trkpt>
      <trkpt lat="43.56469" lon="1.16145">
        <ele>201</ele>
        <time>2020-05-25T18:58:08Z</time>
      </trkpt>
      <trkpt lat="43.5646" lon="1.16142">
        <ele>201</ele>
        <time>2020-05-25T18:58:15Z</time>
      </trkpt>
      <trkpt lat="43.5645" lon="1.1614">
        <ele>200</ele>
        <time>2020-05-25T18:58:23Z</time>
      </trkpt>
      <trkpt lat="43.56441" lon="1.16136">
        <ele>199</ele>
        <time>2020-05-25T18:58:31Z</time>
      </trkpt>
      <trkpt lat="43.56432" lon="1.16133">
        <ele>198</ele>
        <time>2020-05-25T18:58:39Z</time>
      </trkpt>
      <trkpt lat="43.56422" lon="1.1613">
        <ele>198</ele>
        <time>2020-05-25T18:58:47Z</time>
      </trkpt>
      <trkpt lat="43.56413" lon="1.16133">
        <ele>202</ele>
        <time>2020-05-25T18:58:55Z</time>
      </trkpt>
      <trkpt lat="43.56403" lon="1.16129">
        <ele>204</ele>
        <time>2020-05-25T18:59:03Z</time>
      </trkpt>
      <trkpt lat="43.56398" lon="1.16118">
        <ele>205</ele>
        <time>2020-05-25T18:59:11Z</time>
      </trkpt>
      <trkpt lat="43.5639" lon="1.16113">
        <ele>205</ele>
        <time>2020-05-25T18:59:18Z</time>
      </trkpt>
      <trkpt lat="43.56379" lon="1.16113">
        <ele>205</ele>
        <time>2020-05-25T18:59:26Z</time>
      </trkpt>
      <trkpt lat="43.56369" lon="1.16115">
        <ele>204</ele>
        <time>2020-05-25T18:59:34Z</time>
      </trkpt>
      <trkpt lat="43.56362" lon="1.16106">
        <ele>205</ele>
        <time>2020-05-25T18:59:42Z</time>
      </trkpt>
      <trkpt lat="43.56352" lon="1.16106">
        <ele>206</ele>
        <time>2020-05-25T18:59:50Z</time>
      </trkpt>
      <trkpt lat="43.56343" lon="1.1611">
        <ele>206</ele>
        <time>2020-05-25T18:59:57Z</time>
      </trkpt>
      <trkpt lat="43.56333" lon="1.16111">
        <ele>206</ele>
        <time>2020-05-25T19:00:05Z</time>
      </trkpt>
      <trkpt lat="43.56324" lon="1.16112">
        <ele>206</ele>
        <time>2020-05-25T19:00:13Z</time>
      </trkpt>
      <trkpt lat="43.56315" lon="1.16108">
        <ele>206</ele>
        <time>2020-05-25T19:00:20Z</time>
      </trkpt>
      <trkpt lat="43.56306" lon="1.16106">
        <ele>206</ele>
        <time>2020-05-25T19:00:28Z</time>
      </trkpt>
      <trkpt lat="43.56297" lon="1.16108">
        <ele>205</ele>
        <time>2020-05-25T19:00:35Z</time>
      </trkpt>
      <trkpt lat="43.56288" lon="1.16107">
        <ele>206</ele>
        <time>2020-05-25T19:00:42Z</time>
      </trkpt>
      <trkpt lat="43.56278" lon="1.16104">
        <ele>208</ele>
        <time>2020-05-25T19:00:50Z</time>
      </trkpt>
      <trkpt lat="43.56269" lon="1.16105">
        <ele>208</ele>
        <time>2020-05-25T19:00:58Z</time>
      </trkpt>
      <trkpt lat="43.5626" lon="1.16105">
        <ele>208</ele>
        <time>2020-05-25T19:01:05Z</time>
      </trkpt>
      <trkpt lat="43.56251" lon="1.16106">
        <ele>208</ele>
        <time>2020-05-25T19:01:12Z</time>
      </trkpt>
      <trkpt lat="43.56241" lon="1.16107">
        <ele>208</ele>
        <time>2020-05-25T19:01:20Z</time>
      </trkpt>
      <trkpt lat="43.56232" lon="1.16106">
        <ele>210</ele>
        <time>2020-05-25T19:01:27Z</time>
      </trkpt>
      <trkpt lat="43.56223" lon="1.16102">
        <ele>210</ele>
        <time>2020-05-25T19:01:36Z</time>
      </trkpt>
      <trkpt lat="43.56215" lon="1.16095">
        <ele>210</ele>
        <time>2020-05-25T19:01:43Z</time>
      </trkpt>
      <trkpt lat="43.56205" lon="1.16095">
        <ele>210</ele>
        <time>2020-05-25T19:01:51Z</time>
      </trkpt>
      <trkpt lat="43.56195" lon="1.16095">
        <ele>209</ele>
        <time>2020-05-25T19:01:59Z</time>
      </trkpt>
      <trkpt lat="43.56186" lon="1.16092">
        <ele>208</ele>
        <time>2020-05-25T19:02:06Z</time>
      </trkpt>
      <trkpt lat="43.56176" lon="1.16089">
        <ele>207</ele>
        <time>2020-05-25T19:02:14Z</time>
      </trkpt>
      <trkpt lat="43.56167" lon="1.16091">
        <ele>207</ele>
        <time>2020-05-25T19:02:22Z</time>
      </trkpt>
      <trkpt lat="43.56157" lon="1.16091">
        <ele>205</ele>
        <time>2020-05-25T19:02:30Z</time>
      </trkpt>
      <trkpt lat="43.56147" lon="1.16088">
        <ele>204</ele>
        <time>2020-05-25T19:02:38Z</time>
      </trkpt>
      <trkpt lat="43.56137" lon="1.16088">
        <ele>204</ele>
        <time>2020-05-25T19:02:46Z</time>
      </trkpt>
      <trkpt lat="43.56139" lon="1.16102">
        <ele>203</ele>
        <time>2020-05-25T19:02:54Z</time>
      </trkpt>
      <trkpt lat="43.56141" lon="1.16115">
        <ele>202</ele>
        <time>2020-05-25T19:03:02Z</time>
      </trkpt>
      <trkpt lat="43.56138" lon="1.16128">
        <ele>202</ele>
        <time>2020-05-25T19:03:10Z</time>
      </trkpt>
      <trkpt lat="43.56137" lon="1.16141">
        <ele>201</ele>
        <time>2020-05-25T19:03:17Z</time>
      </trkpt>
      <trkpt lat="43.56137" lon="1.16154">
        <ele>199</ele>
        <time>2020-05-25T19:03:25Z</time>
      </trkpt>
      <trkpt lat="43.56133" lon="1.16166">
        <ele>196</ele>
        <time>2020-05-25T19:03:33Z</time>
      </trkpt>
      <trkpt lat="43.56132" lon="1.16179">
        <ele>195</ele>
        <time>2020-05-25T19:03:41Z</time>
      </trkpt>
      <trkpt lat="43.56132" lon="1.16194">
        <ele>194</ele>
        <time>2020-05-25T19:03:49Z</time>
      </trkpt>
      <trkpt lat="43.56133" lon="1.16208">
        <ele>193</ele>
        <time>2020-05-25T19:03:58Z</time>
      </trkpt>
      <trkpt lat="43.56132" lon="1.16223">
        <ele>193</ele>
        <time>2020-05-25T19:04:07Z</time>
      </trkpt>
      <trkpt lat="43.56132" lon="1.16236">
        <ele>193</ele>
        <time>2020-05-25T19:04:14Z</time>
      </trkpt>
      <trkpt lat="43.56132" lon="1.16249">
        <ele>195</ele>
        <time>2020-05-25T19:04:22Z</time>
      </trkpt>
      <trkpt lat="43.56133" lon="1.16263">
        <ele>197</ele>
        <time>2020-05-25T19:04:30Z</time>
      </trkpt>
      <trkpt lat="43.56133" lon="1.16276">
        <ele>201</ele>
        <time>2020-05-25T19:04:38Z</time>
      </trkpt>
      <trkpt lat="43.5613" lon="1.16288">
        <ele>207</ele>
        <time>2020-05-25T19:04:47Z</time>
      </trkpt>
      <trkpt lat="43.56129" lon="1.16301">
        <ele>212</ele>
        <time>2020-05-25T19:04:55Z</time>
      </trkpt>
      <trkpt lat="43.56129" lon="1.16315">
        <ele>216</ele>
        <time>2020-05-25T19:05:04Z</time>
      </trkpt>
      <trkpt lat="43.56125" lon="1.16328">
        <ele>222</ele>
        <time>2020-05-25T19:05:13Z</time>
      </trkpt>
      <trkpt lat="43.56128" lon="1.1634">
        <ele>223</ele>
        <time>2020-05-25T19:05:20Z</time>
      </trkpt>
      <trkpt lat="43.56124" lon="1.16352">
        <ele>224</ele>
        <time>2020-05-25T19:05:28Z</time>
      </trkpt>
      <trkpt lat="43.56122" lon="1.16365">
        <ele>225</ele>
        <time>2020-05-25T19:05:35Z</time>
      </trkpt>
      <trkpt lat="43.5612" lon="1.16378">
        <ele>225</ele>
        <time>2020-05-25T19:05:43Z</time>
      </trkpt>
      <trkpt lat="43.56117" lon="1.16391">
        <ele>223</ele>
        <time>2020-05-25T19:05:51Z</time>
      </trkpt>
      <trkpt lat="43.56118" lon="1.16405">
        <ele>219</ele>
        <time>2020-05-25T19:06:00Z</time>
      </trkpt>
      <trkpt lat="43.56118" lon="1.16419">
        <ele>214</ele>
        <time>2020-05-25T19:06:09Z</time>
      </trkpt>
      <trkpt lat="43.56114" lon="1.16431">
        <ele>212</ele>
        <time>2020-05-25T19:06:17Z</time>
      </trkpt>
      <trkpt lat="43.56111" lon="1.16444">
        <ele>210</ele>
        <time>2020-05-25T19:06:24Z</time>
      </trkpt>
      <trkpt lat="43.5611" lon="1.16458">
        <ele>209</ele>
        <time>2020-05-25T19:06:33Z</time>
      </trkpt>
      <trkpt lat="43.56108" lon="1.16472">
        <ele>209</ele>
        <time>2020-05-25T19:06:41Z</time>
      </trkpt>
      <trkpt lat="43.56106" lon="1.16484">
        <ele>209</ele>
        <time>2020-05-25T19:06:48Z</time>
      </trkpt>
      <trkpt lat="43.56104" lon="1.16497">
        <ele>208</ele>
        <time>2020-05-25T19:06:56Z</time>
      </trkpt>
      <trkpt lat="43.56103" lon="1.1651">
        <ele>207</ele>
        <time>2020-05-25T19:07:04Z</time>
      </trkpt>
      <trkpt lat="43.56102" lon="1.16524">
        <ele>207</ele>
        <time>2020-05-25T19:07:12Z</time>
      </trkpt>
      <trkpt lat="43.56099" lon="1.16536">
        <ele>206</ele>
        <time>2020-05-25T19:07:19Z</time>
      </trkpt>
      <trkpt lat="43.56101" lon="1.1655">
        <ele>206</ele>
        <time>2020-05-25T19:07:27Z</time>
      </trkpt>
      <trkpt lat="43.56101" lon="1.16564">
        <ele>207</ele>
        <time>2020-05-25T19:07:36Z</time>
      </trkpt>
      <trkpt lat="43.56098" lon="1.16578">
        <ele>207</ele>
        <time>2020-05-25T19:07:44Z</time>
      </trkpt>
      <trkpt lat="43.56099" lon="1.16592">
        <ele>207</ele>
        <time>2020-05-25T19:07:52Z</time>
      </trkpt>
      <trkpt lat="43.56097" lon="1.16604">
        <ele>207</ele>
        <time>2020-05-25T19:08:00Z</time>
      </trkpt>
      <trkpt lat="43.56095" lon="1.16617">
        <ele>207</ele>
        <time>2020-05-25T19:08:07Z</time>
      </trkpt>
      <trkpt lat="43.56094" lon="1.16631">
        <ele>207</ele>
        <time>2020-05-25T19:08:15Z</time>
      </trkpt>
      <trkpt lat="43.56094" lon="1.16643">
        <ele>207</ele>
        <time>2020-05-25T19:08:23Z</time>
      </trkpt>
      <trkpt lat="43.56094" lon="1.16659">
        <ele>207</ele>
        <time>2020-05-25T19:08:32Z</time>
      </trkpt>
      <trkpt lat="43.56092" lon="1.16671">
        <ele>204</ele>
        <time>2020-05-25T19:08:39Z</time>
      </trkpt>
      <trkpt lat="43.56093" lon="1.16684">
        <ele>203</ele>
        <time>2020-05-25T19:08:47Z</time>
      </trkpt>
      <trkpt lat="43.56094" lon="1.16698">
        <ele>203</ele>
        <time>2020-05-25T19:08:55Z</time>
      </trkpt>
      <trkpt lat="43.56089" lon="1.16709">
        <ele>205</ele>
        <time>2020-05-25T19:09:03Z</time>
      </trkpt>
      <trkpt lat="43.56093" lon="1.16721">
        <ele>203</ele>
        <time>2020-05-25T19:09:10Z</time>
      </trkpt>
      <trkpt lat="43.56093" lon="1.16735">
        <ele>201</ele>
        <time>2020-05-25T19:09:18Z</time>
      </trkpt>
      <trkpt lat="43.56094" lon="1.16748">
        <ele>200</ele>
        <time>2020-05-25T19:09:26Z</time>
      </trkpt>
      <trkpt lat="43.56091" lon="1.16761">
        <ele>200</ele>
        <time>2020-05-25T19:09:34Z</time>
      </trkpt>
      <trkpt lat="43.5609" lon="1.16774">
        <ele>200</ele>
        <time>2020-05-25T19:09:42Z</time>
      </trkpt>
      <trkpt lat="43.56088" lon="1.16788">
        <ele>200</ele>
        <time>2020-05-25T19:09:50Z</time>
      </trkpt>
      <trkpt lat="43.56088" lon="1.16803">
        <ele>200</ele>
        <time>2020-05-25T19:09:59Z</time>
      </trkpt>
      <trkpt lat="43.56087" lon="1.16816">
        <ele>200</ele>
        <time>2020-05-25T19:10:06Z</time>
      </trkpt>
      <trkpt lat="43.56085" lon="1.16829">
        <ele>201</ele>
        <time>2020-05-25T19:10:14Z</time>
      </trkpt>
      <trkpt lat="43.56083" lon="1.16842">
        <ele>199</ele>
        <time>2020-05-25T19:10:21Z</time>
      </trkpt>
      <trkpt lat="43.56082" lon="1.16854">
        <ele>198</ele>
        <time>2020-05-25T19:10:29Z</time>
      </trkpt>
      <trkpt lat="43.5608" lon="1.16867">
        <ele>197</ele>
        <time>2020-05-25T19:10:37Z</time>
      </trkpt>
      <trkpt lat="43.56082" lon="1.1688">
        <ele>195</ele>
        <time>2020-05-25T19:10:45Z</time>
      </trkpt>
      <trkpt lat="43.56081" lon="1.16894">
        <ele>194</ele>
        <time>2020-05-25T19:10:52Z</time>
      </trkpt>
      <trkpt lat="43.56083" lon="1.16907">
        <ele>194</ele>
        <time>2020-05-25T19:11:00Z</time>
      </trkpt>
      <trkpt lat="43.56084" lon="1.16919">
        <ele>190</ele>
        <time>2020-05-25T19:11:08Z</time>
      </trkpt>
      <trkpt lat="43.56085" lon="1.16932">
        <ele>186</ele>
        <time>2020-05-25T19:11:16Z</time>
      </trkpt>
      <trkpt lat="43.56083" lon="1.16945">
        <ele>185</ele>
        <time>2020-05-25T19:11:24Z</time>
      </trkpt>
      <trkpt lat="43.5608" lon="1.16958">
        <ele>187</ele>
        <time>2020-05-25T19:11:32Z</time>
      </trkpt>
      <trkpt lat="43.56077" lon="1.16971">
        <ele>189</ele>
        <time>2020-05-25T19:11:40Z</time>
      </trkpt>
      <trkpt lat="43.56071" lon="1.16981">
        <ele>189</ele>
        <time>2020-05-25T19:11:47Z</time>
      </trkpt>
      <trkpt lat="43.56062" lon="1.16989">
        <ele>190</ele>
        <time>2020-05-25T19:11:56Z</time>
      </trkpt>
      <trkpt lat="43.56053" lon="1.16989">
        <ele>192</ele>
        <time>2020-05-25T19:12:03Z</time>
      </trkpt>
      <trkpt lat="43.56043" lon="1.16987">
        <ele>194</ele>
        <time>2020-05-25T19:12:12Z</time>
      </trkpt>
      <trkpt lat="43.56034" lon="1.16988">
        <ele>195</ele>
        <time>2020-05-25T19:12:19Z</time>
      </trkpt>
      <trkpt lat="43.56025" lon="1.16985">
        <ele>197</ele>
        <time>2020-05-25T19:12:27Z</time>
      </trkpt>
      <trkpt lat="43.56015" lon="1.16984">
        <ele>199</ele>
        <time>2020-05-25T19:12:34Z</time>
      </trkpt>
      <trkpt lat="43.56006" lon="1.16981">
        <ele>199</ele>
        <time>2020-05-25T19:12:42Z</time>
      </trkpt>
      <trkpt lat="43.55996" lon="1.16979">
        <ele>199</ele>
        <time>2020-05-25T19:12:50Z</time>
      </trkpt>
      <trkpt lat="43.55987" lon="1.16978">
        <ele>201</ele>
        <time>2020-05-25T19:12:57Z</time>
      </trkpt>
      <trkpt lat="43.55978" lon="1.16974">
        <ele>203</ele>
        <time>2020-05-25T19:13:05Z</time>
      </trkpt>
      <trkpt lat="43.55967" lon="1.16972">
        <ele>203</ele>
        <time>2020-05-25T19:13:14Z</time>
      </trkpt>
      <trkpt lat="43.55958" lon="1.16971">
        <ele>204</ele>
        <time>2020-05-25T19:13:21Z</time>
      </trkpt>
      <trkpt lat="43.55948" lon="1.16968">
        <ele>204</ele>
        <time>2020-05-25T19:13:29Z</time>
      </trkpt>
      <trkpt lat="43.55939" lon="1.16962">
        <ele>203</ele>
        <time>2020-05-25T19:13:37Z</time>
      </trkpt>
      <trkpt lat="43.5593" lon="1.16963">
        <ele>203</ele>
        <time>2020-05-25T19:13:45Z</time>
      </trkpt>
      <trkpt lat="43.55921" lon="1.16958">
        <ele>204</ele>
        <time>2020-05-25T19:13:52Z</time>
      </trkpt>
      <trkpt lat="43.55914" lon="1.1695">
        <ele>206</ele>
        <time>2020-05-25T19:13:59Z</time>
      </trkpt>
      <trkpt lat="43.55911" lon="1.16938">
        <ele>205</ele>
        <time>2020-05-25T19:14:07Z</time>
      </trkpt>
      <trkpt lat="43.55907" lon="1.16926">
        <ele>204</ele>
        <time>2020-05-25T19:14:14Z</time>
      </trkpt>
      <trkpt lat="43.55901" lon="1.16916">
        <ele>204</ele>
        <time>2020-05-25T19:14:22Z</time>
      </trkpt>
      <trkpt lat="43.55898" lon="1.16904">
        <ele>204</ele>
        <time>2020-05-25T19:14:30Z</time>
      </trkpt>
      <trkpt lat="43.55894" lon="1.16891">
        <ele>203</ele>
        <time>2020-05-25T19:14:37Z</time>
      </trkpt>
      <trkpt lat="43.5589" lon="1.1688">
        <ele>203</ele>
        <time>2020-05-25T19:14:45Z</time>
      </trkpt>
      <trkpt lat="43.55887" lon="1.16867">
        <ele>204</ele>
        <time>2020-05-25T19:14:53Z</time>
      </trkpt>
      <trkpt lat="43.55883" lon="1.16856">
        <ele>204</ele>
        <time>2020-05-25T19:15:00Z</time>
      </trkpt>
      <trkpt lat="43.55881" lon="1.16842">
        <ele>204</ele>
        <time>2020-05-25T19:15:08Z</time>
      </trkpt>
      <trkpt lat="43.5588" lon="1.1683">
        <ele>204</ele>
        <time>2020-05-25T19:15:15Z</time>
      </trkpt>
      <trkpt lat="43.55878" lon="1.16818">
        <ele>204</ele>
        <time>2020-05-25T19:15:23Z</time>
      </trkpt>
      <trkpt lat="43.55874" lon="1.16806">
        <ele>203</ele>
        <time>2020-05-25T19:15:30Z</time>
      </trkpt>
      <trkpt lat="43.55872" lon="1.16793">
        <ele>202</ele>
        <time>2020-05-25T19:15:38Z</time>
      </trkpt>
      <trkpt lat="43.5587" lon="1.16781">
        <ele>200</ele>
        <time>2020-05-25T19:15:45Z</time>
      </trkpt>
      <trkpt lat="43.55863" lon="1.16773">
        <ele>200</ele>
        <time>2020-05-25T19:15:53Z</time>
      </trkpt>
      <trkpt lat="43.55854" lon="1.16769">
        <ele>201</ele>
        <time>2020-05-25T19:16:01Z</time>
      </trkpt>
      <trkpt lat="43.55843" lon="1.16766">
        <ele>202</ele>
        <time>2020-05-25T19:16:09Z</time>
      </trkpt>
      <trkpt lat="43.55836" lon="1.16756">
        <ele>205</ele>
        <time>2020-05-25T19:16:18Z</time>
      </trkpt>
      <trkpt lat="43.55829" lon="1.16747">
        <ele>207</ele>
        <time>2020-05-25T19:16:25Z</time>
      </trkpt>
      <trkpt lat="43.55823" lon="1.16737">
        <ele>209</ele>
        <time>2020-05-25T19:16:33Z</time>
      </trkpt>
      <trkpt lat="43.55817" lon="1.16727">
        <ele>210</ele>
        <time>2020-05-25T19:16:40Z</time>
      </trkpt>
      <trkpt lat="43.5581" lon="1.16717">
        <ele>210</ele>
        <time>2020-05-25T19:16:49Z</time>
      </trkpt>
      <trkpt lat="43.55806" lon="1.16705">
        <ele>210</ele>
        <time>2020-05-25T19:16:56Z</time>
      </trkpt>
      <trkpt lat="43.55801" lon="1.16694">
        <ele>209</ele>
        <time>2020-05-25T19:17:04Z</time>
      </trkpt>
      <trkpt lat="43.55793" lon="1.16684">
        <ele>209</ele>
        <time>2020-05-25T19:17:12Z</time>
      </trkpt>
      <trkpt lat="43.55785" lon="1.16676">
        <ele>210</ele>
        <time>2020-05-25T19:17:20Z</time>
      </trkpt>
      <trkpt lat="43.5578" lon="1.16665">
        <ele>210</ele>
        <time>2020-05-25T19:17:28Z</time>
      </trkpt>
      <trkpt lat="43.55773" lon="1.16654">
        <ele>210</ele>
        <time>2020-05-25T19:17:36Z</time>
      </trkpt>
      <trkpt lat="43.55766" lon="1.16647">
        <ele>209</ele>
        <time>2020-05-25T19:17:43Z</time>
      </trkpt>
      <trkpt lat="43.55758" lon="1.1664">
        <ele>209</ele>
        <time>2020-05-25T19:17:51Z</time>
      </trkpt>
      <trkpt lat="43.5575" lon="1.16634">
        <ele>208</ele>
        <time>2020-05-25T19:17:58Z</time>
      </trkpt>
      <trkpt lat="43.55743" lon="1.16625">
        <ele>207</ele>
        <time>2020-05-25T19:18:06Z</time>
      </trkpt>
      <trkpt lat="43.55735" lon="1.16616">
        <ele>207</ele>
        <time>2020-05-25T19:18:14Z</time>
      </trkpt>
      <trkpt lat="43.55727" lon="1.16609">
        <ele>207</ele>
        <time>2020-05-25T19:18:22Z</time>
      </trkpt>
      <trkpt lat="43.55718" lon="1.16602">
        <ele>210</ele>
        <time>2020-05-25T19:18:30Z</time>
      </trkpt>
      <trkpt lat="43.55709" lon="1.16595">
        <ele>210</ele>
        <time>2020-05-25T19:18:38Z</time>
      </trkpt>
      <trkpt lat="43.55703" lon="1.16586">
        <ele>210</ele>
        <time>2020-05-25T19:18:46Z</time>
      </trkpt>
      <trkpt lat="43.55696" lon="1.16578">
        <ele>212</ele>
        <time>2020-05-25T19:18:53Z</time>
      </trkpt>
      <trkpt lat="43.55688" lon="1.16569">
        <ele>213</ele>
        <time>2020-05-25T19:19:01Z</time>
      </trkpt>
      <trkpt lat="43.5568" lon="1.16562">
        <ele>210</ele>
        <time>2020-05-25T19:19:09Z</time>
      </trkpt>
      <trkpt lat="43.55671" lon="1.16562">
        <ele>210</ele>
        <time>2020-05-25T19:19:16Z</time>
      </trkpt>
      <trkpt lat="43.55662" lon="1.16563">
        <ele>211</ele>
        <time>2020-05-25T19:19:24Z</time>
      </trkpt>
      <trkpt lat="43.55653" lon="1.16562">
        <ele>214</ele>
        <time>2020-05-25T19:19:32Z</time>
      </trkpt>
      <trkpt lat="43.55643" lon="1.16564">
        <ele>215</ele>
        <time>2020-05-25T19:19:39Z</time>
      </trkpt>
      <trkpt lat="43.55633" lon="1.16565">
        <ele>216</ele>
        <time>2020-05-25T19:19:48Z</time>
      </trkpt>
      <trkpt lat="43.55624" lon="1.16564">
        <ele>216</ele>
        <time>2020-05-25T19:19:55Z</time>
      </trkpt>
      <trkpt lat="43.55614" lon="1.16565">
        <ele>216</ele>
        <time>2020-05-25T19:20:03Z</time>
      </trkpt>
      <trkpt lat="43.55605" lon="1.16561">
        <ele>216</ele>
        <time>2020-05-25T19:20:11Z</time>
      </trkpt>
      <trkpt lat="43.55596" lon="1.16558">
        <ele>216</ele>
        <time>2020-05-25T19:20:18Z</time>
      </trkpt>
      <trkpt lat="43.55586" lon="1.16556">
        <ele>215</ele>
        <time>2020-05-25T19:20:26Z</time>
      </trkpt>
      <trkpt lat="43.55576" lon="1.16553">
        <ele>214</ele>
        <time>2020-05-25T19:20:34Z</time>
      </trkpt>
      <trkpt lat="43.55566" lon="1.16552">
        <ele>212</ele>
        <time>2020-05-25T19:20:42Z</time>
      </trkpt>
      <trkpt lat="43.55557" lon="1.16551">
        <ele>212</ele>
        <time>2020-05-25T19:20:50Z</time>
      </trkpt>
      <trkpt lat="43.55546" lon="1.16548">
        <ele>212</ele>
        <time>2020-05-25T19:20:58Z</time>
      </trkpt>
      <trkpt lat="43.55536" lon="1.16548">
        <ele>211</ele>
        <time>2020-05-25T19:21:06Z</time>
      </trkpt>
      <trkpt lat="43.55527" lon="1.16544">
        <ele>210</ele>
        <time>2020-05-25T19:21:14Z</time>
      </trkpt>
      <trkpt lat="43.5552" lon="1.16536">
        <ele>208</ele>
        <time>2020-05-25T19:21:22Z</time>
      </trkpt>
      <trkpt lat="43.55512" lon="1.1653">
        <ele>206</ele>
        <time>2020-05-25T19:21:29Z</time>
      </trkpt>
      <trkpt lat="43.55502" lon="1.16528">
        <ele>204</ele>
        <time>2020-05-25T19:21:37Z</time>
      </trkpt>
      <trkpt lat="43.55492" lon="1.16528">
        <ele>201</ele>
        <time>2020-05-25T19:21:45Z</time>
      </trkpt>
      <trkpt lat="43.55483" lon="1.16524">
        <ele>196</ele>
        <time>2020-05-25T19:21:53Z</time>
      </trkpt>
      <trkpt lat="43.55473" lon="1.16521">
        <ele>195</ele>
        <time>2020-05-25T19:22:02Z</time>
      </trkpt>
      <trkpt lat="43.55464" lon="1.16519">
        <ele>194</ele>
        <time>2020-05-25T19:22:09Z</time>
      </trkpt>
      <trkpt lat="43.55454" lon="1.16516">
        <ele>196</ele>
        <time>2020-05-25T19:22:17Z</time>
      </trkpt>
      <trkpt lat="43.55445" lon="1.16514">
        <ele>196</ele>
        <time>2020-05-25T19:22:25Z</time>
      </trkpt>
      <trkpt lat="43.55437" lon="1.16508">
        <ele>196</ele>
        <time>2020-05-25T19:22:32Z</time>
      </trkpt>
      <trkpt lat="43.55427" lon="1.16508">
        <ele>198</ele>
        <time>2020-05-25T19:22:40Z</time>
      </trkpt>
      <trkpt lat="43.55417" lon="1.16504">
        <ele>200</ele>
        <time>2020-05-25T19:22:48Z</time>
      </trkpt>
      <trkpt lat="43.55409" lon="1.16511">
        <ele>202</ele>
        <time>2020-05-25T19:22:56Z</time>
      </trkpt>
      <trkpt lat="43.55414" lon="1.16523">
        <ele>203</ele>
        <time>2020-05-25T19:23:04Z</time>
      </trkpt>
      <trkpt lat="43.55415" lon="1.16536">
        <ele>202</ele>
        <time>2020-05-25T19:23:12Z</time>
      </trkpt>
      <trkpt lat="43.55413" lon="1.1655">
        <ele>201</ele>
        <time>2020-05-25T19:23:20Z</time>
      </trkpt>
      <trkpt lat="43.55409" lon="1.16562">
        <ele>201</ele>
        <time>2020-05-25T19:23:28Z</time>
      </trkpt>
      <trkpt lat="43.55404" lon="1.16576">
        <ele>202</ele>
        <time>2020-05-25T19:23:37Z</time>
      </trkpt>
      <trkpt lat="43.554" lon="1.16589">
        <ele>201</ele>
        <time>2020-05-25T19:23:45Z</time>
      </trkpt>
      <trkpt lat="43.55396" lon="1.16602">
        <ele>203</ele>
        <time>2020-05-25T19:23:54Z</time>
      </trkpt>
      <trkpt lat="43.55391" lon="1.16613">
        <ele>205</ele>
        <time>2020-05-25T19:24:01Z</time>
      </trkpt>
      <trkpt lat="43.55391" lon="1.16628">
        <ele>204</ele>
        <time>2020-05-25T19:24:10Z</time>
      </trkpt>
      <trkpt lat="43.55387" lon="1.1664">
        <ele>203</ele>
        <time>2020-05-25T19:24:18Z</time>
      </trkpt>
      <trkpt lat="43.55384" lon="1.16653">
        <ele>202</ele>
        <time>2020-05-25T19:24:25Z</time>
      </trkpt>
      <trkpt lat="43.55384" lon="1.16665">
        <ele>202</ele>
        <time>2020-05-25T19:24:33Z</time>
      </trkpt>
      <trkpt lat="43.55381" lon="1.16678">
        <ele>204</ele>
        <time>2020-05-25T19:24:41Z</time>
      </trkpt>
      <trkpt lat="43.55381" lon="1.16692">
        <ele>202</ele>
        <time>2020-05-25T19:24:49Z</time>
      </trkpt>
      <trkpt lat="43.55377" lon="1.16704">
        <ele>200</ele>
        <time>2020-05-25T19:24:57Z</time>
      </trkpt>
      <trkpt lat="43.55368" lon="1.16713">
        <ele>199</ele>
        <time>2020-05-25T19:25:05Z</time>
      </trkpt>
      <trkpt lat="43.55361" lon="1.16722">
        <ele>200</ele>
        <time>2020-05-25T19:25:13Z</time>
      </trkpt>
      <trkpt lat="43.55356" lon="1.16735">
        <ele>200</ele>
        <time>2020-05-25T19:25:22Z</time>
      </trkpt>
      <trkpt lat="43.55353" lon="1.16747">
        <ele>202</ele>
        <time>2020-05-25T19:25:29Z</time>
      </trkpt>
      <trkpt lat="43.55351" lon="1.16759">
        <ele>199</ele>
        <time>2020-05-25T19:25:37Z</time>
      </trkpt>
      <trkpt lat="43.5535" lon="1.16773">
        <ele>197</ele>
        <time>2020-05-25T19:25:45Z</time>
      </trkpt>
      <trkpt lat="43.55345" lon="1.16785">
        <ele>196</ele>
        <time>2020-05-25T19:25:53Z</time>
      </trkpt>
      <trkpt lat="43.55343" lon="1.16799">
        <ele>196</ele>
        <time>2020-05-25T19:26:02Z</time>
      </trkpt>
      <trkpt lat="43.55341" lon="1.16812">
        <ele>195</ele>
        <time>2020-05-25T19:26:09Z</time>
      </trkpt>
      <trkpt lat="43.55339" lon="1.16824">
        <ele>196</ele>
        <time>2020-05-25T19:26:17Z</time>
      </trkpt>
      <trkpt lat="43.55335" lon="1.16837">
        <ele>197</ele>
        <time>2020-05-25T19:26:25Z</time>
      </trkpt>
      <trkpt lat="43.55332" lon="1.16851">
        <ele>198</ele>
        <time>2020-05-25T19:26:33Z</time>
      </trkpt>
      <trkpt lat="43.55331" lon="1.16864">
        <ele>199</ele>
        <time>2020-05-25T19:26:41Z</time>
      </trkpt>
      <trkpt lat="43.55329" lon="1.16877">
        <ele>201</ele>
        <time>2020-05-25T19:26:48Z</time>
      </trkpt>
      <trkpt lat="43.55328" lon="1.16889">
        <ele>201</ele>
        <time>2020-05-25T19:26:56Z</time>
      </trkpt>
      <trkpt lat="43.55331" lon="1.16901">
        <ele>203</ele>
        <time>2020-05-25T19:27:03Z</time>
      </trkpt>
      <trkpt lat="43.55328" lon="1.16915">
        <ele>204</ele>
        <time>2020-05-25T19:27:11Z</time>
      </trkpt>
      <trkpt lat="43.55326" lon="1.16928">
        <ele>204</ele>
        <time>2020-05-25T19:27:19Z</time>
      </trkpt>
      <trkpt lat="43.55322" lon="1.1694">
        <ele>205</ele>
        <time>2020-05-25T19:27:27Z</time>
      </trkpt>
      <trkpt lat="43.55321" lon="1.16954">
        <ele>203</ele>
        <time>2020-05-25T19:27:35Z</time>
      </trkpt>
      <trkpt lat="43.55322" lon="1.16967">
        <ele>202</ele>
        <time>2020-05-25T19:27:43Z</time>
      </trkpt>
      <trkpt lat="43.55321" lon="1.1698">
        <ele>201</ele>
        <time>2020-05-25T19:27:50Z</time>
      </trkpt>
      <trkpt lat="43.55319" lon="1.16994">
        <ele>201</ele>
        <time>2020-05-25T19:27:59Z</time>
      </trkpt>
      <trkpt lat="43.55316" lon="1.17007">
        <ele>202</ele>
        <time>2020-05-25T19:28:07Z</time>
      </trkpt>
      <trkpt lat="43.55314" lon="1.1702">
        <ele>202</ele>
        <time>2020-05-25T19:28:15Z</time>
      </trkpt>
      <trkpt lat="43.55316" lon="1.17032">
        <ele>202</ele>
        <time>2020-05-25T19:28:22Z</time>
      </trkpt>
      <trkpt lat="43.55314" lon="1.17046">
        <ele>203</ele>
        <time>2020-05-25T19:28:30Z</time>
      </trkpt>
      <trkpt lat="43.55313" lon="1.17059">
        <ele>202</ele>
        <time>2020-05-25T19:28:38Z</time>
      </trkpt>
      <trkpt lat="43.55314" lon="1.17072">
        <ele>201</ele>
        <time>2020-05-25T19:28:46Z</time>
      </trkpt>
      <trkpt lat="43.5531" lon="1.17086">
        <ele>201</ele>
        <time>2020-05-25T19:28:54Z</time>
      </trkpt>
      <trkpt lat="43.55307" lon="1.17099">
        <ele>202</ele>
        <time>2020-05-25T19:29:03Z</time>
      </trkpt>
      <trkpt lat="43.55307" lon="1.17112">
        <ele>201</ele>
        <time>2020-05-25T19:29:10Z</time>
      </trkpt>
      <trkpt lat="43.55305" lon="1.17127">
        <ele>201</ele>
        <time>2020-05-25T19:29:19Z</time>
      </trkpt>
      <trkpt lat="43.55303" lon="1.17141">
        <ele>202</ele>
        <time>2020-05-25T19:29:27Z</time>
      </trkpt>
      <trkpt lat="43.55299" lon="1.17153">
        <ele>203</ele>
        <time>2020-05-25T19:29:35Z</time>
      </trkpt>
      <trkpt lat="43.55296" lon="1.17166">
        <ele>204</ele>
        <time>2020-05-25T19:29:43Z</time>
      </trkpt>
      <trkpt lat="43.55294" lon="1.17181">
        <ele>204</ele>
        <time>2020-05-25T19:29:51Z</time>
      </trkpt>
      <trkpt lat="43.55293" lon="1.17194">
        <ele>205</ele>
        <time>2020-05-25T19:29:59Z</time>
      </trkpt>
      <trkpt lat="43.55293" lon="1.17206">
        <ele>203</ele>
        <time>2020-05-25T19:30:07Z</time>
      </trkpt>
      <trkpt lat="43.55293" lon="1.17219">
        <ele>201</ele>
        <time>2020-05-25T19:30:14Z</time>
      </trkpt>
      <trkpt lat="43.55295" lon="1.17232">
        <ele>199</ele>
        <time>2020-05-25T19:30:22Z</time>
      </trkpt>
      <trkpt lat="43.55292" lon="1.17245">
        <ele>198</ele>
        <time>2020-05-25T19:30:30Z</time>
      </trkpt>
      <trkpt lat="43.55292" lon="1.17259">
        <ele>197</ele>
        <time>2020-05-25T19:30:38Z</time>
      </trkpt>
      <trkpt lat="43.55292" lon="1.17272">
        <ele>198</ele>
        <time>2020-05-25T19:30:46Z</time>
      </trkpt>
      <trkpt lat="43.5529" lon="1.17285">
        <ele>199</ele>
        <time>2020-05-25T19:30:53Z</time>
      </trkpt>
      <trkpt lat="43.55289" lon="1.17297">
        <ele>200</ele>
        <time>2020-05-25T19:31:01Z</time>
      </trkpt>
      <trkpt lat="43.5529" lon="1.1731">
        <ele>200</ele>
        <time>2020-05-25T19:31:08Z</time>
      </trkpt>
      <trkpt lat="43.55289" lon="1.17325">
        <ele>200</ele>
        <time>2020-05-25T19:31:17Z</time>
      </trkpt>
      <trkpt lat="43.55288" lon="1.17339">
        <ele>201</ele>
        <time>2020-05-25T19:31:25Z</time>
      </trkpt>
      <trkpt lat="43.55292" lon="1.17351">
        <ele>201</ele>
        <time>2020-05-25T19:31:33Z</time>
      </trkpt>
      <trkpt lat="43.55291" lon="1.17364">
        <ele>201</ele>
        <time>2020-05-25T19:31:41Z</time>
      </trkpt>
      <trkpt lat="43.55291" lon="1.17378">
        <ele>202</ele>
        <time>2020-05-25T19:31:49Z</time>
      </trkpt>
      <trkpt lat="43.55294" lon="1.17389">
        <ele>199</ele>
        <time>2020-05-25T19:31:56Z</time>
      </trkpt>
      <trkpt lat="43.55293" lon="1.17403">
        <ele>197</ele>
        <time>2020-05-25T19:32:04Z</time>
      </trkpt>
      <trkpt lat="43.55294" lon="1.17416">
        <ele>196</ele>
        <time>2020-05-25T19:32:11Z</time>
      </trkpt>
      <trkpt lat="43.55295" lon="1.17429">
        <ele>196</ele>
        <time>2020-05-25T19:32:19Z</time>
      </trkpt>
      <trkpt lat="43.55295" lon="1.17442">
        <ele>197</ele>
        <time>2020-05-25T19:32:27Z</time>
      </trkpt>
      <trkpt lat="43.55295" lon="1.17457">
        <ele>198</ele>
        <time>2020-05-25T19:32:36Z</time>
      </trkpt>
      <trkpt lat="43.55297" lon="1.17469">
        <ele>198</ele>
        <time>2020-05-25T19:32:43Z</time>
      </trkpt>
      <trkpt lat="43.55297" lon="1.17481">
        <ele>198</ele>
        <time>2020-05-25T19:32:50Z</time>
      </trkpt>
      <trkpt lat="43.55299" lon="1.17495">
        <ele>198</ele>
        <time>2020-05-25T19:32:58Z</time>
      </trkpt>
      <trkpt lat="43.553" lon="1.17509">
        <ele>197</ele>
        <time>2020-05-25T19:33:06Z</time>
      </trkpt>
      <trkpt lat="43.55301" lon="1.17522">
        <ele>196</ele>
        <time>2020-05-25T19:33:14Z</time>
      </trkpt>
      <trkpt lat="43.55301" lon="1.17536">
        <ele>196</ele>
        <time>2020-05-25T19:33:22Z</time>
      </trkpt>
      <trkpt lat="43.55299" lon="1.17549">
        <ele>196</ele>
        <time>2020-05-25T19:33:30Z</time>
      </trkpt>
      <trkpt lat="43.55302" lon="1.17565">
        <ele>197</ele>
        <time>2020-05-25T19:33:39Z</time>
      </trkpt>
      <trkpt lat="43.55304" lon="1.17578">
        <ele>196</ele>
        <time>2020-05-25T19:33:47Z</time>
      </trkpt>
      <trkpt lat="43.55308" lon="1.1759">
        <ele>194</ele>
        <time>2020-05-25T19:33:55Z</time>
      </trkpt>
      <trkpt lat="43.55309" lon="1.17603">
        <ele>193</ele>
        <time>2020-05-25T19:34:03Z</time>
      </trkpt>
      <trkpt lat="43.5531" lon="1.17615">
        <ele>195</ele>
        <time>2020-05-25T19:34:10Z</time>
      </trkpt>
      <trkpt lat="43.5531" lon="1.17628">
        <ele>195</ele>
        <time>2020-05-25T19:34:18Z</time>
      </trkpt>
      <trkpt lat="43.55309" lon="1.17641">
        <ele>196</ele>
        <time>2020-05-25T19:34:25Z</time>
      </trkpt>
      <trkpt lat="43.55309" lon="1.17654">
        <ele>198</ele>
        <time>2020-05-25T19:34:33Z</time>
      </trkpt>
      <trkpt lat="43.55309" lon="1.17667">
        <ele>199</ele>
        <time>2020-05-25T19:34:41Z</time>
      </trkpt>
      <trkpt lat="43.55308" lon="1.17681">
        <ele>200</ele>
        <time>2020-05-25T19:34:48Z</time>
      </trkpt>
      <trkpt lat="43.55308" lon="1.17695">
        <ele>200</ele>
        <time>2020-05-25T19:34:57Z</time>
      </trkpt>
      <trkpt lat="43.55323" lon="1.17737">
        <ele>206</ele>
        <time>2020-05-25T19:35:24Z</time>
      </trkpt>
    </trkseg>
  </trk>
</gpx>